<?xml version="1.0" encoding="UTF-8" standalone="no" ?>
<gpx xmlns="http://www.topografix.com/GPX/1/1" xmlns:xsi="http://www.w3.org/2001/XMLSchema-instance" xsi:schemaLocation="http://www.topografix.com/GPX/1/1 http://www.topografix.com/GPX/1/1/gpx.xsd" version="1.1" creator="VisuGPX - https://www.visugpx.com">
  <metadata>
    <name>Bouconne - Lac de la Bordette</name>
    <desc><![CDATA[Bouconne - Lac de la Bordette]]></desc>
  </metadata>
  <trk>
    <name><![CDATA[Untitled]]></name>
    <trkseg>
      <trkpt lat="43.64172" lon="1.22243">
        <ele>219</ele>
        <time>2013-04-27T07:04:30.000Z</time>
      </trkpt>
      <trkpt lat="43.64177" lon="1.22223">
        <ele>219.39999389648</ele>
        <time>2013-04-27T07:04:36.000Z</time>
      </trkpt>
      <trkpt lat="43.64172" lon="1.22205">
        <ele>220</ele>
        <time>2013-04-27T07:04:42.000Z</time>
      </trkpt>
      <trkpt lat="43.64167" lon="1.22189">
        <ele>220.39999389648</ele>
        <time>2013-04-27T07:04:47.000Z</time>
      </trkpt>
      <trkpt lat="43.64165" lon="1.2217">
        <ele>220.80000305176</ele>
        <time>2013-04-27T07:04:52.000Z</time>
      </trkpt>
      <trkpt lat="43.64163" lon="1.22155">
        <ele>220.80000305176</ele>
        <time>2013-04-27T07:04:57.000Z</time>
      </trkpt>
      <trkpt lat="43.6416" lon="1.22147">
        <ele>220.80000305176</ele>
        <time>2013-04-27T07:05:00.000Z</time>
      </trkpt>
      <trkpt lat="43.64159" lon="1.22134">
        <ele>220.80000305176</ele>
        <time>2013-04-27T07:05:04.000Z</time>
      </trkpt>
      <trkpt lat="43.64158" lon="1.22119">
        <ele>221</ele>
        <time>2013-04-27T07:05:09.000Z</time>
      </trkpt>
      <trkpt lat="43.64158" lon="1.22116">
        <ele>221</ele>
        <time>2013-04-27T07:05:10.000Z</time>
      </trkpt>
      <trkpt lat="43.6416" lon="1.22103">
        <ele>221</ele>
        <time>2013-04-27T07:05:14.000Z</time>
      </trkpt>
      <trkpt lat="43.64164" lon="1.22083">
        <ele>221</ele>
        <time>2013-04-27T07:05:20.000Z</time>
      </trkpt>
      <trkpt lat="43.64165" lon="1.2207">
        <ele>221.19999694824</ele>
        <time>2013-04-27T07:05:24.000Z</time>
      </trkpt>
      <trkpt lat="43.64165" lon="1.22057">
        <ele>221.60000610352</ele>
        <time>2013-04-27T07:05:28.000Z</time>
      </trkpt>
      <trkpt lat="43.64167" lon="1.22042">
        <ele>221.80000305176</ele>
        <time>2013-04-27T07:05:33.000Z</time>
      </trkpt>
      <trkpt lat="43.64163" lon="1.22019">
        <ele>222.39999389648</ele>
        <time>2013-04-27T07:05:39.000Z</time>
      </trkpt>
      <trkpt lat="43.64162" lon="1.22016">
        <ele>222.60000610352</ele>
        <time>2013-04-27T07:05:40.000Z</time>
      </trkpt>
      <trkpt lat="43.64158" lon="1.22008">
        <ele>222.80000305176</ele>
        <time>2013-04-27T07:05:43.000Z</time>
      </trkpt>
      <trkpt lat="43.64153" lon="1.21997">
        <ele>223.19999694824</ele>
        <time>2013-04-27T07:05:47.000Z</time>
      </trkpt>
      <trkpt lat="43.64145" lon="1.21983">
        <ele>224</ele>
        <time>2013-04-27T07:05:52.000Z</time>
      </trkpt>
      <trkpt lat="43.64144" lon="1.2198">
        <ele>224.19999694824</ele>
        <time>2013-04-27T07:05:53.000Z</time>
      </trkpt>
      <trkpt lat="43.64137" lon="1.21963">
        <ele>225</ele>
        <time>2013-04-27T07:05:59.000Z</time>
      </trkpt>
      <trkpt lat="43.64132" lon="1.21952">
        <ele>225.60000610352</ele>
        <time>2013-04-27T07:06:04.000Z</time>
      </trkpt>
      <trkpt lat="43.64127" lon="1.21943">
        <ele>226.19999694824</ele>
        <time>2013-04-27T07:06:08.000Z</time>
      </trkpt>
      <trkpt lat="43.64119" lon="1.21931">
        <ele>226.80000305176</ele>
        <time>2013-04-27T07:06:13.000Z</time>
      </trkpt>
      <trkpt lat="43.64118" lon="1.21929">
        <ele>227</ele>
        <time>2013-04-27T07:06:14.000Z</time>
      </trkpt>
      <trkpt lat="43.64112" lon="1.21915">
        <ele>227.60000610352</ele>
        <time>2013-04-27T07:06:19.000Z</time>
      </trkpt>
      <trkpt lat="43.64111" lon="1.21908">
        <ele>227.80000305176</ele>
        <time>2013-04-27T07:06:22.000Z</time>
      </trkpt>
      <trkpt lat="43.64104" lon="1.21896">
        <ele>228.19999694824</ele>
        <time>2013-04-27T07:06:27.000Z</time>
      </trkpt>
      <trkpt lat="43.64097" lon="1.21882">
        <ele>228.60000610352</ele>
        <time>2013-04-27T07:06:32.000Z</time>
      </trkpt>
      <trkpt lat="43.64091" lon="1.21863">
        <ele>229.19999694824</ele>
        <time>2013-04-27T07:06:38.000Z</time>
      </trkpt>
      <trkpt lat="43.64086" lon="1.21843">
        <ele>229.60000610352</ele>
        <time>2013-04-27T07:06:44.000Z</time>
      </trkpt>
      <trkpt lat="43.64083" lon="1.2183">
        <ele>230</ele>
        <time>2013-04-27T07:06:48.000Z</time>
      </trkpt>
      <trkpt lat="43.64081" lon="1.21821">
        <ele>230</ele>
        <time>2013-04-27T07:06:51.000Z</time>
      </trkpt>
      <trkpt lat="43.64081" lon="1.21805">
        <ele>230.39999389648</ele>
        <time>2013-04-27T07:06:56.000Z</time>
      </trkpt>
      <trkpt lat="43.6408" lon="1.21795">
        <ele>230.60000610352</ele>
        <time>2013-04-27T07:06:59.000Z</time>
      </trkpt>
      <trkpt lat="43.64079" lon="1.21779">
        <ele>231</ele>
        <time>2013-04-27T07:07:04.000Z</time>
      </trkpt>
      <trkpt lat="43.64075" lon="1.21764">
        <ele>231.19999694824</ele>
        <time>2013-04-27T07:07:09.000Z</time>
      </trkpt>
      <trkpt lat="43.64068" lon="1.21757">
        <ele>231</ele>
        <time>2013-04-27T07:07:13.000Z</time>
      </trkpt>
      <trkpt lat="43.64063" lon="1.21754">
        <ele>230.80000305176</ele>
        <time>2013-04-27T07:07:15.000Z</time>
      </trkpt>
      <trkpt lat="43.64057" lon="1.21748">
        <ele>230.60000610352</ele>
        <time>2013-04-27T07:07:18.000Z</time>
      </trkpt>
      <trkpt lat="43.64048" lon="1.2174">
        <ele>230.39999389648</ele>
        <time>2013-04-27T07:07:22.000Z</time>
      </trkpt>
      <trkpt lat="43.64046" lon="1.21738">
        <ele>230.19999694824</ele>
        <time>2013-04-27T07:07:23.000Z</time>
      </trkpt>
      <trkpt lat="43.64036" lon="1.21728">
        <ele>230</ele>
        <time>2013-04-27T07:07:28.000Z</time>
      </trkpt>
      <trkpt lat="43.64022" lon="1.21714">
        <ele>229.80000305176</ele>
        <time>2013-04-27T07:07:34.000Z</time>
      </trkpt>
      <trkpt lat="43.64012" lon="1.21706">
        <ele>229.39999389648</ele>
        <time>2013-04-27T07:07:39.000Z</time>
      </trkpt>
      <trkpt lat="43.63997" lon="1.21692">
        <ele>229.19999694824</ele>
        <time>2013-04-27T07:07:45.000Z</time>
      </trkpt>
      <trkpt lat="43.63982" lon="1.21678">
        <ele>229.19999694824</ele>
        <time>2013-04-27T07:07:52.000Z</time>
      </trkpt>
      <trkpt lat="43.63968" lon="1.21667">
        <ele>229.19999694824</ele>
        <time>2013-04-27T07:07:58.000Z</time>
      </trkpt>
      <trkpt lat="43.63957" lon="1.21658">
        <ele>229.19999694824</ele>
        <time>2013-04-27T07:08:03.000Z</time>
      </trkpt>
      <trkpt lat="43.63946" lon="1.21649">
        <ele>229</ele>
        <time>2013-04-27T07:08:08.000Z</time>
      </trkpt>
      <trkpt lat="43.63941" lon="1.21641">
        <ele>229</ele>
        <time>2013-04-27T07:08:11.000Z</time>
      </trkpt>
      <trkpt lat="43.63939" lon="1.21639">
        <ele>229</ele>
        <time>2013-04-27T07:08:12.000Z</time>
      </trkpt>
      <trkpt lat="43.63928" lon="1.21631">
        <ele>228.80000305176</ele>
        <time>2013-04-27T07:08:16.000Z</time>
      </trkpt>
      <trkpt lat="43.63913" lon="1.2162">
        <ele>228.39999389648</ele>
        <time>2013-04-27T07:08:22.000Z</time>
      </trkpt>
      <trkpt lat="43.63911" lon="1.21619">
        <ele>228.60000610352</ele>
        <time>2013-04-27T07:08:23.000Z</time>
      </trkpt>
      <trkpt lat="43.63903" lon="1.21611">
        <ele>228.60000610352</ele>
        <time>2013-04-27T07:08:27.000Z</time>
      </trkpt>
      <trkpt lat="43.63892" lon="1.21602">
        <ele>228.80000305176</ele>
        <time>2013-04-27T07:08:32.000Z</time>
      </trkpt>
      <trkpt lat="43.63885" lon="1.21595">
        <ele>228.80000305176</ele>
        <time>2013-04-27T07:08:36.000Z</time>
      </trkpt>
      <trkpt lat="43.63876" lon="1.21581">
        <ele>229</ele>
        <time>2013-04-27T07:08:42.000Z</time>
      </trkpt>
      <trkpt lat="43.63868" lon="1.21573">
        <ele>229</ele>
        <time>2013-04-27T07:08:47.000Z</time>
      </trkpt>
      <trkpt lat="43.63862" lon="1.21567">
        <ele>229</ele>
        <time>2013-04-27T07:08:52.000Z</time>
      </trkpt>
      <trkpt lat="43.63856" lon="1.21562">
        <ele>229.19999694824</ele>
        <time>2013-04-27T07:08:56.000Z</time>
      </trkpt>
      <trkpt lat="43.63854" lon="1.2156">
        <ele>229.19999694824</ele>
        <time>2013-04-27T07:08:58.000Z</time>
      </trkpt>
      <trkpt lat="43.63853" lon="1.21558">
        <ele>229.19999694824</ele>
        <time>2013-04-27T07:09:00.000Z</time>
      </trkpt>
      <trkpt lat="43.63845" lon="1.21551">
        <ele>229.19999694824</ele>
        <time>2013-04-27T07:09:05.000Z</time>
      </trkpt>
      <trkpt lat="43.63837" lon="1.21543">
        <ele>229.39999389648</ele>
        <time>2013-04-27T07:09:08.000Z</time>
      </trkpt>
      <trkpt lat="43.63828" lon="1.21535">
        <ele>229.80000305176</ele>
        <time>2013-04-27T07:09:12.000Z</time>
      </trkpt>
      <trkpt lat="43.63819" lon="1.21528">
        <ele>230.19999694824</ele>
        <time>2013-04-27T07:09:16.000Z</time>
      </trkpt>
      <trkpt lat="43.63811" lon="1.21519">
        <ele>230.60000610352</ele>
        <time>2013-04-27T07:09:20.000Z</time>
      </trkpt>
      <trkpt lat="43.63803" lon="1.21503">
        <ele>231</ele>
        <time>2013-04-27T07:09:26.000Z</time>
      </trkpt>
      <trkpt lat="43.63802" lon="1.21501">
        <ele>231</ele>
        <time>2013-04-27T07:09:27.000Z</time>
      </trkpt>
      <trkpt lat="43.63779" lon="1.21484">
        <ele>232</ele>
        <time>2013-04-27T07:09:38.000Z</time>
      </trkpt>
      <trkpt lat="43.63763" lon="1.2147">
        <ele>232.80000305176</ele>
        <time>2013-04-27T07:09:45.000Z</time>
      </trkpt>
      <trkpt lat="43.63758" lon="1.21465">
        <ele>233</ele>
        <time>2013-04-27T07:09:48.000Z</time>
      </trkpt>
      <trkpt lat="43.63746" lon="1.2145">
        <ele>233.60000610352</ele>
        <time>2013-04-27T07:09:54.000Z</time>
      </trkpt>
      <trkpt lat="43.63741" lon="1.21427">
        <ele>234</ele>
        <time>2013-04-27T07:10:00.000Z</time>
      </trkpt>
      <trkpt lat="43.6374" lon="1.21419">
        <ele>234</ele>
        <time>2013-04-27T07:10:02.000Z</time>
      </trkpt>
      <trkpt lat="43.63735" lon="1.21399">
        <ele>233.60000610352</ele>
        <time>2013-04-27T07:10:08.000Z</time>
      </trkpt>
      <trkpt lat="43.63734" lon="1.21395">
        <ele>233.39999389648</ele>
        <time>2013-04-27T07:10:09.000Z</time>
      </trkpt>
      <trkpt lat="43.63731" lon="1.21386">
        <ele>233.19999694824</ele>
        <time>2013-04-27T07:10:13.000Z</time>
      </trkpt>
      <trkpt lat="43.63725" lon="1.21369">
        <ele>232.80000305176</ele>
        <time>2013-04-27T07:10:18.000Z</time>
      </trkpt>
      <trkpt lat="43.63721" lon="1.21359">
        <ele>232.60000610352</ele>
        <time>2013-04-27T07:10:21.000Z</time>
      </trkpt>
      <trkpt lat="43.63714" lon="1.21348">
        <ele>232.60000610352</ele>
        <time>2013-04-27T07:10:25.000Z</time>
      </trkpt>
      <trkpt lat="43.63712" lon="1.21346">
        <ele>232.60000610352</ele>
        <time>2013-04-27T07:10:26.000Z</time>
      </trkpt>
      <trkpt lat="43.63696" lon="1.21328">
        <ele>232.80000305176</ele>
        <time>2013-04-27T07:10:34.000Z</time>
      </trkpt>
      <trkpt lat="43.63687" lon="1.21321">
        <ele>232.80000305176</ele>
        <time>2013-04-27T07:10:38.000Z</time>
      </trkpt>
      <trkpt lat="43.6367" lon="1.21309">
        <ele>233.19999694824</ele>
        <time>2013-04-27T07:10:45.000Z</time>
      </trkpt>
      <trkpt lat="43.63662" lon="1.21302">
        <ele>233.19999694824</ele>
        <time>2013-04-27T07:10:49.000Z</time>
      </trkpt>
      <trkpt lat="43.6366" lon="1.21299">
        <ele>233.19999694824</ele>
        <time>2013-04-27T07:10:50.000Z</time>
      </trkpt>
      <trkpt lat="43.63658" lon="1.21292">
        <ele>233</ele>
        <time>2013-04-27T07:10:53.000Z</time>
      </trkpt>
      <trkpt lat="43.63652" lon="1.21271">
        <ele>232.80000305176</ele>
        <time>2013-04-27T07:10:59.000Z</time>
      </trkpt>
      <trkpt lat="43.63646" lon="1.21258">
        <ele>232.80000305176</ele>
        <time>2013-04-27T07:11:04.000Z</time>
      </trkpt>
      <trkpt lat="43.63638" lon="1.21252">
        <ele>233</ele>
        <time>2013-04-27T07:11:08.000Z</time>
      </trkpt>
      <trkpt lat="43.63625" lon="1.21248">
        <ele>233.19999694824</ele>
        <time>2013-04-27T07:11:13.000Z</time>
      </trkpt>
      <trkpt lat="43.63613" lon="1.21249">
        <ele>233.80000305176</ele>
        <time>2013-04-27T07:11:18.000Z</time>
      </trkpt>
      <trkpt lat="43.63599" lon="1.21242">
        <ele>234</ele>
        <time>2013-04-27T07:11:24.000Z</time>
      </trkpt>
      <trkpt lat="43.63588" lon="1.21237">
        <ele>234</ele>
        <time>2013-04-27T07:11:29.000Z</time>
      </trkpt>
      <trkpt lat="43.63568" lon="1.2124">
        <ele>233.80000305176</ele>
        <time>2013-04-27T07:11:37.000Z</time>
      </trkpt>
      <trkpt lat="43.63567" lon="1.21239">
        <ele>233.80000305176</ele>
        <time>2013-04-27T07:11:38.000Z</time>
      </trkpt>
      <trkpt lat="43.63559" lon="1.21236">
        <ele>233.39999389648</ele>
        <time>2013-04-27T07:11:42.000Z</time>
      </trkpt>
      <trkpt lat="43.63546" lon="1.21236">
        <ele>233</ele>
        <time>2013-04-27T07:11:47.000Z</time>
      </trkpt>
      <trkpt lat="43.63531" lon="1.21243">
        <ele>232.80000305176</ele>
        <time>2013-04-27T07:11:54.000Z</time>
      </trkpt>
      <trkpt lat="43.63524" lon="1.21248">
        <ele>232.80000305176</ele>
        <time>2013-04-27T07:11:57.000Z</time>
      </trkpt>
      <trkpt lat="43.63511" lon="1.21259">
        <ele>232.39999389648</ele>
        <time>2013-04-27T07:12:03.000Z</time>
      </trkpt>
      <trkpt lat="43.63502" lon="1.21266">
        <ele>232.39999389648</ele>
        <time>2013-04-27T07:12:07.000Z</time>
      </trkpt>
      <trkpt lat="43.63494" lon="1.2127">
        <ele>232.39999389648</ele>
        <time>2013-04-27T07:12:10.000Z</time>
      </trkpt>
      <trkpt lat="43.63483" lon="1.2127">
        <ele>232.60000610352</ele>
        <time>2013-04-27T07:12:15.000Z</time>
      </trkpt>
      <trkpt lat="43.63485" lon="1.21258">
        <ele>232.19999694824</ele>
        <time>2013-04-27T07:12:19.000Z</time>
      </trkpt>
      <trkpt lat="43.63488" lon="1.21248">
        <ele>232</ele>
        <time>2013-04-27T07:12:22.000Z</time>
      </trkpt>
      <trkpt lat="43.63494" lon="1.21221">
        <ele>232</ele>
        <time>2013-04-27T07:12:30.000Z</time>
      </trkpt>
      <trkpt lat="43.63496" lon="1.21207">
        <ele>232</ele>
        <time>2013-04-27T07:12:35.000Z</time>
      </trkpt>
      <trkpt lat="43.63498" lon="1.21191">
        <ele>232</ele>
        <time>2013-04-27T07:12:40.000Z</time>
      </trkpt>
      <trkpt lat="43.63502" lon="1.21165">
        <ele>231.80000305176</ele>
        <time>2013-04-27T07:12:47.000Z</time>
      </trkpt>
      <trkpt lat="43.63505" lon="1.21148">
        <ele>231.60000610352</ele>
        <time>2013-04-27T07:12:52.000Z</time>
      </trkpt>
      <trkpt lat="43.63505" lon="1.21143">
        <ele>231.39999389648</ele>
        <time>2013-04-27T07:12:53.000Z</time>
      </trkpt>
      <trkpt lat="43.63513" lon="1.21124">
        <ele>230.80000305176</ele>
        <time>2013-04-27T07:12:59.000Z</time>
      </trkpt>
      <trkpt lat="43.63523" lon="1.21109">
        <ele>230</ele>
        <time>2013-04-27T07:13:05.000Z</time>
      </trkpt>
      <trkpt lat="43.63527" lon="1.21102">
        <ele>229.80000305176</ele>
        <time>2013-04-27T07:13:08.000Z</time>
      </trkpt>
      <trkpt lat="43.63534" lon="1.21084">
        <ele>229</ele>
        <time>2013-04-27T07:13:14.000Z</time>
      </trkpt>
      <trkpt lat="43.6354" lon="1.2107">
        <ele>228.19999694824</ele>
        <time>2013-04-27T07:13:19.000Z</time>
      </trkpt>
      <trkpt lat="43.63544" lon="1.21057">
        <ele>227.60000610352</ele>
        <time>2013-04-27T07:13:23.000Z</time>
      </trkpt>
      <trkpt lat="43.63547" lon="1.21051">
        <ele>227.39999389648</ele>
        <time>2013-04-27T07:13:25.000Z</time>
      </trkpt>
      <trkpt lat="43.63551" lon="1.2103">
        <ele>226.60000610352</ele>
        <time>2013-04-27T07:13:31.000Z</time>
      </trkpt>
      <trkpt lat="43.63557" lon="1.21017">
        <ele>225.80000305176</ele>
        <time>2013-04-27T07:13:35.000Z</time>
      </trkpt>
      <trkpt lat="43.63561" lon="1.21012">
        <ele>225.60000610352</ele>
        <time>2013-04-27T07:13:37.000Z</time>
      </trkpt>
      <trkpt lat="43.63571" lon="1.21001">
        <ele>224.60000610352</ele>
        <time>2013-04-27T07:13:42.000Z</time>
      </trkpt>
      <trkpt lat="43.63577" lon="1.20991">
        <ele>224.60000610352</ele>
        <time>2013-04-27T07:13:47.000Z</time>
      </trkpt>
      <trkpt lat="43.6358" lon="1.20981">
        <ele>224.60000610352</ele>
        <time>2013-04-27T07:13:50.000Z</time>
      </trkpt>
      <trkpt lat="43.63584" lon="1.20965">
        <ele>224.80000305176</ele>
        <time>2013-04-27T07:13:55.000Z</time>
      </trkpt>
      <trkpt lat="43.6359" lon="1.2095">
        <ele>225.19999694824</ele>
        <time>2013-04-27T07:14:00.000Z</time>
      </trkpt>
      <trkpt lat="43.63594" lon="1.20944">
        <ele>225.39999389648</ele>
        <time>2013-04-27T07:14:03.000Z</time>
      </trkpt>
      <trkpt lat="43.63597" lon="1.20938">
        <ele>225.39999389648</ele>
        <time>2013-04-27T07:14:05.000Z</time>
      </trkpt>
      <trkpt lat="43.63605" lon="1.20923">
        <ele>225.80000305176</ele>
        <time>2013-04-27T07:14:10.000Z</time>
      </trkpt>
      <trkpt lat="43.63607" lon="1.20917">
        <ele>225.80000305176</ele>
        <time>2013-04-27T07:14:12.000Z</time>
      </trkpt>
      <trkpt lat="43.6361" lon="1.2091">
        <ele>226</ele>
        <time>2013-04-27T07:14:14.000Z</time>
      </trkpt>
      <trkpt lat="43.63611" lon="1.20897">
        <ele>226.19999694824</ele>
        <time>2013-04-27T07:14:18.000Z</time>
      </trkpt>
      <trkpt lat="43.63613" lon="1.20886">
        <ele>226.19999694824</ele>
        <time>2013-04-27T07:14:22.000Z</time>
      </trkpt>
      <trkpt lat="43.63614" lon="1.20877">
        <ele>226.39999389648</ele>
        <time>2013-04-27T07:14:26.000Z</time>
      </trkpt>
      <trkpt lat="43.63617" lon="1.20869">
        <ele>226.39999389648</ele>
        <time>2013-04-27T07:14:29.000Z</time>
      </trkpt>
      <trkpt lat="43.63618" lon="1.20864">
        <ele>226.60000610352</ele>
        <time>2013-04-27T07:14:31.000Z</time>
      </trkpt>
      <trkpt lat="43.63619" lon="1.20861">
        <ele>226.60000610352</ele>
        <time>2013-04-27T07:14:32.000Z</time>
      </trkpt>
      <trkpt lat="43.63626" lon="1.20846">
        <ele>226.80000305176</ele>
        <time>2013-04-27T07:14:37.000Z</time>
      </trkpt>
      <trkpt lat="43.63628" lon="1.20838">
        <ele>226.80000305176</ele>
        <time>2013-04-27T07:14:39.000Z</time>
      </trkpt>
      <trkpt lat="43.63633" lon="1.20827">
        <ele>227.19999694824</ele>
        <time>2013-04-27T07:14:43.000Z</time>
      </trkpt>
      <trkpt lat="43.63639" lon="1.20809">
        <ele>227.80000305176</ele>
        <time>2013-04-27T07:14:49.000Z</time>
      </trkpt>
      <trkpt lat="43.6364" lon="1.20805">
        <ele>228</ele>
        <time>2013-04-27T07:14:50.000Z</time>
      </trkpt>
      <trkpt lat="43.63643" lon="1.20788">
        <ele>228.39999389648</ele>
        <time>2013-04-27T07:14:55.000Z</time>
      </trkpt>
      <trkpt lat="43.63645" lon="1.20784">
        <ele>228.60000610352</ele>
        <time>2013-04-27T07:14:56.000Z</time>
      </trkpt>
      <trkpt lat="43.63651" lon="1.20766">
        <ele>229</ele>
        <time>2013-04-27T07:15:01.000Z</time>
      </trkpt>
      <trkpt lat="43.63657" lon="1.20746">
        <ele>229.19999694824</ele>
        <time>2013-04-27T07:15:07.000Z</time>
      </trkpt>
      <trkpt lat="43.63658" lon="1.20743">
        <ele>229.19999694824</ele>
        <time>2013-04-27T07:15:08.000Z</time>
      </trkpt>
      <trkpt lat="43.63663" lon="1.20727">
        <ele>228.80000305176</ele>
        <time>2013-04-27T07:15:13.000Z</time>
      </trkpt>
      <trkpt lat="43.63668" lon="1.20715">
        <ele>228.39999389648</ele>
        <time>2013-04-27T07:15:17.000Z</time>
      </trkpt>
      <trkpt lat="43.63677" lon="1.20692">
        <ele>228.19999694824</ele>
        <time>2013-04-27T07:15:24.000Z</time>
      </trkpt>
      <trkpt lat="43.63681" lon="1.20679">
        <ele>228</ele>
        <time>2013-04-27T07:15:28.000Z</time>
      </trkpt>
      <trkpt lat="43.63687" lon="1.20666">
        <ele>227.60000610352</ele>
        <time>2013-04-27T07:15:32.000Z</time>
      </trkpt>
      <trkpt lat="43.63687" lon="1.20663">
        <ele>227.80000305176</ele>
        <time>2013-04-27T07:15:33.000Z</time>
      </trkpt>
      <trkpt lat="43.63679" lon="1.20652">
        <ele>228.19999694824</ele>
        <time>2013-04-27T07:15:38.000Z</time>
      </trkpt>
      <trkpt lat="43.63666" lon="1.20641">
        <ele>228.80000305176</ele>
        <time>2013-04-27T07:15:44.000Z</time>
      </trkpt>
      <trkpt lat="43.63666" lon="1.20627">
        <ele>229.39999389648</ele>
        <time>2013-04-27T07:15:48.000Z</time>
      </trkpt>
      <trkpt lat="43.63669" lon="1.20621">
        <ele>229.39999389648</ele>
        <time>2013-04-27T07:15:50.000Z</time>
      </trkpt>
      <trkpt lat="43.63674" lon="1.20608">
        <ele>229.60000610352</ele>
        <time>2013-04-27T07:15:54.000Z</time>
      </trkpt>
      <trkpt lat="43.63683" lon="1.20592">
        <ele>229.60000610352</ele>
        <time>2013-04-27T07:16:00.000Z</time>
      </trkpt>
      <trkpt lat="43.63691" lon="1.20576">
        <ele>229.80000305176</ele>
        <time>2013-04-27T07:16:06.000Z</time>
      </trkpt>
      <trkpt lat="43.63692" lon="1.20573">
        <ele>230</ele>
        <time>2013-04-27T07:16:07.000Z</time>
      </trkpt>
      <trkpt lat="43.63697" lon="1.20562">
        <ele>230.19999694824</ele>
        <time>2013-04-27T07:16:11.000Z</time>
      </trkpt>
      <trkpt lat="43.63698" lon="1.2056">
        <ele>230.39999389648</ele>
        <time>2013-04-27T07:16:12.000Z</time>
      </trkpt>
      <trkpt lat="43.63706" lon="1.2054">
        <ele>231</ele>
        <time>2013-04-27T07:16:19.000Z</time>
      </trkpt>
      <trkpt lat="43.63708" lon="1.20539">
        <ele>231.19999694824</ele>
        <time>2013-04-27T07:16:20.000Z</time>
      </trkpt>
      <trkpt lat="43.63715" lon="1.20526">
        <ele>231.60000610352</ele>
        <time>2013-04-27T07:16:25.000Z</time>
      </trkpt>
      <trkpt lat="43.63716" lon="1.20523">
        <ele>231.60000610352</ele>
        <time>2013-04-27T07:16:26.000Z</time>
      </trkpt>
      <trkpt lat="43.63719" lon="1.20517">
        <ele>232</ele>
        <time>2013-04-27T07:16:28.000Z</time>
      </trkpt>
      <trkpt lat="43.63724" lon="1.20494">
        <ele>233</ele>
        <time>2013-04-27T07:16:35.000Z</time>
      </trkpt>
      <trkpt lat="43.63729" lon="1.20484">
        <ele>232.80000305176</ele>
        <time>2013-04-27T07:16:39.000Z</time>
      </trkpt>
      <trkpt lat="43.63732" lon="1.20479">
        <ele>232.80000305176</ele>
        <time>2013-04-27T07:16:41.000Z</time>
      </trkpt>
      <trkpt lat="43.63736" lon="1.20471">
        <ele>232.80000305176</ele>
        <time>2013-04-27T07:16:44.000Z</time>
      </trkpt>
      <trkpt lat="43.63744" lon="1.20457">
        <ele>232.60000610352</ele>
        <time>2013-04-27T07:16:49.000Z</time>
      </trkpt>
      <trkpt lat="43.63752" lon="1.20439">
        <ele>232.39999389648</ele>
        <time>2013-04-27T07:16:55.000Z</time>
      </trkpt>
      <trkpt lat="43.63759" lon="1.20425">
        <ele>232.19999694824</ele>
        <time>2013-04-27T07:16:59.000Z</time>
      </trkpt>
      <trkpt lat="43.63766" lon="1.2041">
        <ele>232</ele>
        <time>2013-04-27T07:17:04.000Z</time>
      </trkpt>
      <trkpt lat="43.63773" lon="1.20397">
        <ele>231.80000305176</ele>
        <time>2013-04-27T07:17:08.000Z</time>
      </trkpt>
      <trkpt lat="43.6378" lon="1.20382">
        <ele>231.80000305176</ele>
        <time>2013-04-27T07:17:13.000Z</time>
      </trkpt>
      <trkpt lat="43.63788" lon="1.20364">
        <ele>231.80000305176</ele>
        <time>2013-04-27T07:17:19.000Z</time>
      </trkpt>
      <trkpt lat="43.63795" lon="1.2035">
        <ele>231.60000610352</ele>
        <time>2013-04-27T07:17:24.000Z</time>
      </trkpt>
      <trkpt lat="43.63801" lon="1.20335">
        <ele>231.80000305176</ele>
        <time>2013-04-27T07:17:29.000Z</time>
      </trkpt>
      <trkpt lat="43.6381" lon="1.20312">
        <ele>233.39999389648</ele>
        <time>2013-04-27T07:17:36.000Z</time>
      </trkpt>
      <trkpt lat="43.63819" lon="1.2029">
        <ele>235.39999389648</ele>
        <time>2013-04-27T07:17:43.000Z</time>
      </trkpt>
      <trkpt lat="43.63822" lon="1.20281">
        <ele>236.39999389648</ele>
        <time>2013-04-27T07:17:46.000Z</time>
      </trkpt>
      <trkpt lat="43.63833" lon="1.20257">
        <ele>239</ele>
        <time>2013-04-27T07:17:54.000Z</time>
      </trkpt>
      <trkpt lat="43.63839" lon="1.2024">
        <ele>239.60000610352</ele>
        <time>2013-04-27T07:17:59.000Z</time>
      </trkpt>
      <trkpt lat="43.63847" lon="1.20221">
        <ele>239.39999389648</ele>
        <time>2013-04-27T07:18:05.000Z</time>
      </trkpt>
      <trkpt lat="43.63855" lon="1.20201">
        <ele>239.19999694824</ele>
        <time>2013-04-27T07:18:11.000Z</time>
      </trkpt>
      <trkpt lat="43.63862" lon="1.20186">
        <ele>239</ele>
        <time>2013-04-27T07:18:16.000Z</time>
      </trkpt>
      <trkpt lat="43.6387" lon="1.20169">
        <ele>239</ele>
        <time>2013-04-27T07:18:21.000Z</time>
      </trkpt>
      <trkpt lat="43.63876" lon="1.20153">
        <ele>239</ele>
        <time>2013-04-27T07:18:26.000Z</time>
      </trkpt>
      <trkpt lat="43.63883" lon="1.20134">
        <ele>239</ele>
        <time>2013-04-27T07:18:32.000Z</time>
      </trkpt>
      <trkpt lat="43.63888" lon="1.20121">
        <ele>239.19999694824</ele>
        <time>2013-04-27T07:18:36.000Z</time>
      </trkpt>
      <trkpt lat="43.63894" lon="1.20106">
        <ele>239.39999389648</ele>
        <time>2013-04-27T07:18:41.000Z</time>
      </trkpt>
      <trkpt lat="43.639" lon="1.20094">
        <ele>239.60000610352</ele>
        <time>2013-04-27T07:18:45.000Z</time>
      </trkpt>
      <trkpt lat="43.63908" lon="1.20075">
        <ele>239.60000610352</ele>
        <time>2013-04-27T07:18:51.000Z</time>
      </trkpt>
      <trkpt lat="43.63915" lon="1.2006">
        <ele>239.39999389648</ele>
        <time>2013-04-27T07:18:56.000Z</time>
      </trkpt>
      <trkpt lat="43.63922" lon="1.20044">
        <ele>239</ele>
        <time>2013-04-27T07:19:01.000Z</time>
      </trkpt>
      <trkpt lat="43.63931" lon="1.20025">
        <ele>238.80000305176</ele>
        <time>2013-04-27T07:19:07.000Z</time>
      </trkpt>
      <trkpt lat="43.63937" lon="1.20009">
        <ele>238.80000305176</ele>
        <time>2013-04-27T07:19:12.000Z</time>
      </trkpt>
      <trkpt lat="43.63943" lon="1.19993">
        <ele>239.19999694824</ele>
        <time>2013-04-27T07:19:17.000Z</time>
      </trkpt>
      <trkpt lat="43.63952" lon="1.19973">
        <ele>239.60000610352</ele>
        <time>2013-04-27T07:19:23.000Z</time>
      </trkpt>
      <trkpt lat="43.63963" lon="1.19952">
        <ele>240</ele>
        <time>2013-04-27T07:19:30.000Z</time>
      </trkpt>
      <trkpt lat="43.6397" lon="1.19935">
        <ele>240.19999694824</ele>
        <time>2013-04-27T07:19:36.000Z</time>
      </trkpt>
      <trkpt lat="43.63978" lon="1.19914">
        <ele>240.39999389648</ele>
        <time>2013-04-27T07:19:43.000Z</time>
      </trkpt>
      <trkpt lat="43.63981" lon="1.19905">
        <ele>240.60000610352</ele>
        <time>2013-04-27T07:19:46.000Z</time>
      </trkpt>
      <trkpt lat="43.63988" lon="1.19887">
        <ele>241</ele>
        <time>2013-04-27T07:19:52.000Z</time>
      </trkpt>
      <trkpt lat="43.6399" lon="1.19884">
        <ele>241</ele>
        <time>2013-04-27T07:19:53.000Z</time>
      </trkpt>
      <trkpt lat="43.63995" lon="1.19867">
        <ele>241.39999389648</ele>
        <time>2013-04-27T07:19:58.000Z</time>
      </trkpt>
      <trkpt lat="43.64003" lon="1.19848">
        <ele>241.39999389648</ele>
        <time>2013-04-27T07:20:04.000Z</time>
      </trkpt>
      <trkpt lat="43.64008" lon="1.19832">
        <ele>241</ele>
        <time>2013-04-27T07:20:09.000Z</time>
      </trkpt>
      <trkpt lat="43.6401" lon="1.19829">
        <ele>240.60000610352</ele>
        <time>2013-04-27T07:20:10.000Z</time>
      </trkpt>
      <trkpt lat="43.64019" lon="1.19807">
        <ele>239.39999389648</ele>
        <time>2013-04-27T07:20:16.000Z</time>
      </trkpt>
      <trkpt lat="43.64021" lon="1.19801">
        <ele>239</ele>
        <time>2013-04-27T07:20:18.000Z</time>
      </trkpt>
      <trkpt lat="43.64033" lon="1.19797">
        <ele>237.80000305176</ele>
        <time>2013-04-27T07:20:24.000Z</time>
      </trkpt>
      <trkpt lat="43.64036" lon="1.19796">
        <ele>237.39999389648</ele>
        <time>2013-04-27T07:20:26.000Z</time>
      </trkpt>
      <trkpt lat="43.64047" lon="1.19796">
        <ele>236.39999389648</ele>
        <time>2013-04-27T07:20:30.000Z</time>
      </trkpt>
      <trkpt lat="43.64055" lon="1.19808">
        <ele>235.80000305176</ele>
        <time>2013-04-27T07:20:34.000Z</time>
      </trkpt>
      <trkpt lat="43.64067" lon="1.19821">
        <ele>234.60000610352</ele>
        <time>2013-04-27T07:20:40.000Z</time>
      </trkpt>
      <trkpt lat="43.64076" lon="1.19831">
        <ele>233.60000610352</ele>
        <time>2013-04-27T07:20:44.000Z</time>
      </trkpt>
      <trkpt lat="43.64083" lon="1.19842">
        <ele>233.19999694824</ele>
        <time>2013-04-27T07:20:48.000Z</time>
      </trkpt>
      <trkpt lat="43.64088" lon="1.19851">
        <ele>233.39999389648</ele>
        <time>2013-04-27T07:20:51.000Z</time>
      </trkpt>
      <trkpt lat="43.64089" lon="1.19854">
        <ele>233.60000610352</ele>
        <time>2013-04-27T07:20:52.000Z</time>
      </trkpt>
      <trkpt lat="43.64091" lon="1.19874">
        <ele>234.19999694824</ele>
        <time>2013-04-27T07:20:58.000Z</time>
      </trkpt>
      <trkpt lat="43.64092" lon="1.19881">
        <ele>234.39999389648</ele>
        <time>2013-04-27T07:21:01.000Z</time>
      </trkpt>
      <trkpt lat="43.64102" lon="1.19891">
        <ele>234.39999389648</ele>
        <time>2013-04-27T07:21:07.000Z</time>
      </trkpt>
      <trkpt lat="43.64111" lon="1.19901">
        <ele>234.39999389648</ele>
        <time>2013-04-27T07:21:11.000Z</time>
      </trkpt>
      <trkpt lat="43.64112" lon="1.19904">
        <ele>234.60000610352</ele>
        <time>2013-04-27T07:21:12.000Z</time>
      </trkpt>
      <trkpt lat="43.64116" lon="1.19914">
        <ele>234.60000610352</ele>
        <time>2013-04-27T07:21:15.000Z</time>
      </trkpt>
      <trkpt lat="43.64119" lon="1.19925">
        <ele>234.39999389648</ele>
        <time>2013-04-27T07:21:19.000Z</time>
      </trkpt>
      <trkpt lat="43.64125" lon="1.19939">
        <ele>233.80000305176</ele>
        <time>2013-04-27T07:21:24.000Z</time>
      </trkpt>
      <trkpt lat="43.64129" lon="1.19949">
        <ele>233.19999694824</ele>
        <time>2013-04-27T07:21:28.000Z</time>
      </trkpt>
      <trkpt lat="43.64131" lon="1.19953">
        <ele>233</ele>
        <time>2013-04-27T07:21:29.000Z</time>
      </trkpt>
      <trkpt lat="43.64132" lon="1.19964">
        <ele>232.60000610352</ele>
        <time>2013-04-27T07:21:32.000Z</time>
      </trkpt>
      <trkpt lat="43.64135" lon="1.19977">
        <ele>232</ele>
        <time>2013-04-27T07:21:36.000Z</time>
      </trkpt>
      <trkpt lat="43.64136" lon="1.19994">
        <ele>231.39999389648</ele>
        <time>2013-04-27T07:21:41.000Z</time>
      </trkpt>
      <trkpt lat="43.64135" lon="1.19997">
        <ele>231.19999694824</ele>
        <time>2013-04-27T07:21:42.000Z</time>
      </trkpt>
      <trkpt lat="43.64133" lon="1.2001">
        <ele>231</ele>
        <time>2013-04-27T07:21:46.000Z</time>
      </trkpt>
      <trkpt lat="43.64138" lon="1.20025">
        <ele>230.39999389648</ele>
        <time>2013-04-27T07:21:51.000Z</time>
      </trkpt>
      <trkpt lat="43.6414" lon="1.20038">
        <ele>230</ele>
        <time>2013-04-27T07:21:55.000Z</time>
      </trkpt>
      <trkpt lat="43.64137" lon="1.20055">
        <ele>229.80000305176</ele>
        <time>2013-04-27T07:22:00.000Z</time>
      </trkpt>
      <trkpt lat="43.64137" lon="1.20066">
        <ele>229.39999389648</ele>
        <time>2013-04-27T07:22:03.000Z</time>
      </trkpt>
      <trkpt lat="43.64137" lon="1.20078">
        <ele>229.19999694824</ele>
        <time>2013-04-27T07:22:06.000Z</time>
      </trkpt>
      <trkpt lat="43.64141" lon="1.20089">
        <ele>228.60000610352</ele>
        <time>2013-04-27T07:22:10.000Z</time>
      </trkpt>
      <trkpt lat="43.64143" lon="1.20098">
        <ele>228.19999694824</ele>
        <time>2013-04-27T07:22:14.000Z</time>
      </trkpt>
      <trkpt lat="43.64143" lon="1.20101">
        <ele>228</ele>
        <time>2013-04-27T07:22:15.000Z</time>
      </trkpt>
      <trkpt lat="43.64145" lon="1.20111">
        <ele>227.39999389648</ele>
        <time>2013-04-27T07:22:18.000Z</time>
      </trkpt>
      <trkpt lat="43.64146" lon="1.20128">
        <ele>226.80000305176</ele>
        <time>2013-04-27T07:22:23.000Z</time>
      </trkpt>
      <trkpt lat="43.64148" lon="1.20131">
        <ele>226.39999389648</ele>
        <time>2013-04-27T07:22:24.000Z</time>
      </trkpt>
      <trkpt lat="43.64149" lon="1.20134">
        <ele>226.19999694824</ele>
        <time>2013-04-27T07:22:25.000Z</time>
      </trkpt>
      <trkpt lat="43.64152" lon="1.20154">
        <ele>225.19999694824</ele>
        <time>2013-04-27T07:22:31.000Z</time>
      </trkpt>
      <trkpt lat="43.64151" lon="1.2016">
        <ele>225</ele>
        <time>2013-04-27T07:22:33.000Z</time>
      </trkpt>
      <trkpt lat="43.64154" lon="1.2018">
        <ele>224</ele>
        <time>2013-04-27T07:22:38.000Z</time>
      </trkpt>
      <trkpt lat="43.64158" lon="1.20196">
        <ele>223</ele>
        <time>2013-04-27T07:22:43.000Z</time>
      </trkpt>
      <trkpt lat="43.6416" lon="1.20214">
        <ele>222.19999694824</ele>
        <time>2013-04-27T07:22:48.000Z</time>
      </trkpt>
      <trkpt lat="43.64159" lon="1.20228">
        <ele>221.80000305176</ele>
        <time>2013-04-27T07:22:52.000Z</time>
      </trkpt>
      <trkpt lat="43.64154" lon="1.20243">
        <ele>222</ele>
        <time>2013-04-27T07:22:57.000Z</time>
      </trkpt>
      <trkpt lat="43.6416" lon="1.20251">
        <ele>220.80000305176</ele>
        <time>2013-04-27T07:23:01.000Z</time>
      </trkpt>
      <trkpt lat="43.64161" lon="1.20251">
        <ele>220.60000610352</ele>
        <time>2013-04-27T07:23:02.000Z</time>
      </trkpt>
      <trkpt lat="43.64167" lon="1.20254">
        <ele>219.80000305176</ele>
        <time>2013-04-27T07:23:05.000Z</time>
      </trkpt>
      <trkpt lat="43.6417" lon="1.20259">
        <ele>219.80000305176</ele>
        <time>2013-04-27T07:23:07.000Z</time>
      </trkpt>
      <trkpt lat="43.64173" lon="1.20272">
        <ele>219.39999389648</ele>
        <time>2013-04-27T07:23:12.000Z</time>
      </trkpt>
      <trkpt lat="43.64176" lon="1.20284">
        <ele>219.19999694824</ele>
        <time>2013-04-27T07:23:16.000Z</time>
      </trkpt>
      <trkpt lat="43.64177" lon="1.20287">
        <ele>219.19999694824</ele>
        <time>2013-04-27T07:23:17.000Z</time>
      </trkpt>
      <trkpt lat="43.64183" lon="1.203">
        <ele>219</ele>
        <time>2013-04-27T07:23:22.000Z</time>
      </trkpt>
      <trkpt lat="43.64185" lon="1.20301">
        <ele>219</ele>
        <time>2013-04-27T07:23:23.000Z</time>
      </trkpt>
      <trkpt lat="43.64191" lon="1.20304">
        <ele>219</ele>
        <time>2013-04-27T07:23:26.000Z</time>
      </trkpt>
      <trkpt lat="43.64207" lon="1.20306">
        <ele>219.39999389648</ele>
        <time>2013-04-27T07:23:31.000Z</time>
      </trkpt>
      <trkpt lat="43.64212" lon="1.20311">
        <ele>219.39999389648</ele>
        <time>2013-04-27T07:23:33.000Z</time>
      </trkpt>
      <trkpt lat="43.64215" lon="1.20331">
        <ele>219.19999694824</ele>
        <time>2013-04-27T07:23:38.000Z</time>
      </trkpt>
      <trkpt lat="43.64216" lon="1.20337">
        <ele>219.19999694824</ele>
        <time>2013-04-27T07:23:40.000Z</time>
      </trkpt>
      <trkpt lat="43.64221" lon="1.20362">
        <ele>219.39999389648</ele>
        <time>2013-04-27T07:23:47.000Z</time>
      </trkpt>
      <trkpt lat="43.64225" lon="1.20384">
        <ele>219.60000610352</ele>
        <time>2013-04-27T07:23:53.000Z</time>
      </trkpt>
      <trkpt lat="43.64228" lon="1.20393">
        <ele>219.80000305176</ele>
        <time>2013-04-27T07:23:56.000Z</time>
      </trkpt>
      <trkpt lat="43.64231" lon="1.20407">
        <ele>219.80000305176</ele>
        <time>2013-04-27T07:24:01.000Z</time>
      </trkpt>
      <trkpt lat="43.64234" lon="1.20418">
        <ele>219.80000305176</ele>
        <time>2013-04-27T07:24:05.000Z</time>
      </trkpt>
      <trkpt lat="43.64235" lon="1.20431">
        <ele>219.60000610352</ele>
        <time>2013-04-27T07:24:09.000Z</time>
      </trkpt>
      <trkpt lat="43.64236" lon="1.20441">
        <ele>219.39999389648</ele>
        <time>2013-04-27T07:24:12.000Z</time>
      </trkpt>
      <trkpt lat="43.6424" lon="1.20457">
        <ele>219</ele>
        <time>2013-04-27T07:24:17.000Z</time>
      </trkpt>
      <trkpt lat="43.64238" lon="1.20468">
        <ele>218.80000305176</ele>
        <time>2013-04-27T07:24:20.000Z</time>
      </trkpt>
      <trkpt lat="43.64239" lon="1.20475">
        <ele>218.60000610352</ele>
        <time>2013-04-27T07:24:22.000Z</time>
      </trkpt>
      <trkpt lat="43.64241" lon="1.20488">
        <ele>218.39999389648</ele>
        <time>2013-04-27T07:24:27.000Z</time>
      </trkpt>
      <trkpt lat="43.64241" lon="1.2049">
        <ele>218.39999389648</ele>
        <time>2013-04-27T07:24:28.000Z</time>
      </trkpt>
      <trkpt lat="43.64241" lon="1.20494">
        <ele>218.19999694824</ele>
        <time>2013-04-27T07:24:33.000Z</time>
      </trkpt>
      <trkpt lat="43.64241" lon="1.20496">
        <ele>218.19999694824</ele>
        <time>2013-04-27T07:24:34.000Z</time>
      </trkpt>
      <trkpt lat="43.64243" lon="1.20502">
        <ele>218</ele>
        <time>2013-04-27T07:24:39.000Z</time>
      </trkpt>
      <trkpt lat="43.64244" lon="1.2051">
        <ele>217.60000610352</ele>
        <time>2013-04-27T07:24:46.000Z</time>
      </trkpt>
      <trkpt lat="43.64244" lon="1.20511">
        <ele>217.60000610352</ele>
        <time>2013-04-27T07:24:48.000Z</time>
      </trkpt>
      <trkpt lat="43.64244" lon="1.20516">
        <ele>217.39999389648</ele>
        <time>2013-04-27T07:24:54.000Z</time>
      </trkpt>
      <trkpt lat="43.64243" lon="1.20523">
        <ele>217.19999694824</ele>
        <time>2013-04-27T07:24:59.000Z</time>
      </trkpt>
      <trkpt lat="43.64244" lon="1.2053">
        <ele>217</ele>
        <time>2013-04-27T07:25:04.000Z</time>
      </trkpt>
      <trkpt lat="43.64246" lon="1.20538">
        <ele>216.60000610352</ele>
        <time>2013-04-27T07:25:10.000Z</time>
      </trkpt>
      <trkpt lat="43.64247" lon="1.20546">
        <ele>216.39999389648</ele>
        <time>2013-04-27T07:25:16.000Z</time>
      </trkpt>
      <trkpt lat="43.64247" lon="1.20547">
        <ele>216.19999694824</ele>
        <time>2013-04-27T07:25:17.000Z</time>
      </trkpt>
      <trkpt lat="43.64251" lon="1.20553">
        <ele>216</ele>
        <time>2013-04-27T07:25:22.000Z</time>
      </trkpt>
      <trkpt lat="43.64255" lon="1.20559">
        <ele>216.19999694824</ele>
        <time>2013-04-27T07:25:26.000Z</time>
      </trkpt>
      <trkpt lat="43.64257" lon="1.20565">
        <ele>216.19999694824</ele>
        <time>2013-04-27T07:25:28.000Z</time>
      </trkpt>
      <trkpt lat="43.64261" lon="1.20578">
        <ele>216</ele>
        <time>2013-04-27T07:25:32.000Z</time>
      </trkpt>
      <trkpt lat="43.64266" lon="1.20594">
        <ele>216.19999694824</ele>
        <time>2013-04-27T07:25:37.000Z</time>
      </trkpt>
      <trkpt lat="43.64266" lon="1.2061">
        <ele>216</ele>
        <time>2013-04-27T07:25:41.000Z</time>
      </trkpt>
      <trkpt lat="43.64265" lon="1.20614">
        <ele>216</ele>
        <time>2013-04-27T07:25:42.000Z</time>
      </trkpt>
      <trkpt lat="43.6427" lon="1.2063">
        <ele>216.39999389648</ele>
        <time>2013-04-27T07:25:47.000Z</time>
      </trkpt>
      <trkpt lat="43.64273" lon="1.2064">
        <ele>216.39999389648</ele>
        <time>2013-04-27T07:25:50.000Z</time>
      </trkpt>
      <trkpt lat="43.64277" lon="1.20646">
        <ele>216.60000610352</ele>
        <time>2013-04-27T07:25:54.000Z</time>
      </trkpt>
      <trkpt lat="43.64276" lon="1.2066">
        <ele>216.60000610352</ele>
        <time>2013-04-27T07:25:58.000Z</time>
      </trkpt>
      <trkpt lat="43.64278" lon="1.20677">
        <ele>217.19999694824</ele>
        <time>2013-04-27T07:26:03.000Z</time>
      </trkpt>
      <trkpt lat="43.64278" lon="1.20685">
        <ele>217.60000610352</ele>
        <time>2013-04-27T07:26:05.000Z</time>
      </trkpt>
      <trkpt lat="43.64278" lon="1.20692">
        <ele>218</ele>
        <time>2013-04-27T07:26:07.000Z</time>
      </trkpt>
      <trkpt lat="43.6428" lon="1.20699">
        <ele>218.39999389648</ele>
        <time>2013-04-27T07:26:09.000Z</time>
      </trkpt>
      <trkpt lat="43.64279" lon="1.2072">
        <ele>219.60000610352</ele>
        <time>2013-04-27T07:26:15.000Z</time>
      </trkpt>
      <trkpt lat="43.64279" lon="1.20724">
        <ele>219.80000305176</ele>
        <time>2013-04-27T07:26:16.000Z</time>
      </trkpt>
      <trkpt lat="43.64284" lon="1.20739">
        <ele>220.60000610352</ele>
        <time>2013-04-27T07:26:21.000Z</time>
      </trkpt>
      <trkpt lat="43.64284" lon="1.20753">
        <ele>221.19999694824</ele>
        <time>2013-04-27T07:26:25.000Z</time>
      </trkpt>
      <trkpt lat="43.64285" lon="1.20756">
        <ele>221.19999694824</ele>
        <time>2013-04-27T07:26:26.000Z</time>
      </trkpt>
      <trkpt lat="43.64285" lon="1.20763">
        <ele>221.19999694824</ele>
        <time>2013-04-27T07:26:28.000Z</time>
      </trkpt>
      <trkpt lat="43.64286" lon="1.2078">
        <ele>221.39999389648</ele>
        <time>2013-04-27T07:26:33.000Z</time>
      </trkpt>
      <trkpt lat="43.64287" lon="1.2079">
        <ele>221.39999389648</ele>
        <time>2013-04-27T07:26:36.000Z</time>
      </trkpt>
      <trkpt lat="43.643" lon="1.20803">
        <ele>220.60000610352</ele>
        <time>2013-04-27T07:26:41.000Z</time>
      </trkpt>
      <trkpt lat="43.64309" lon="1.20815">
        <ele>219.80000305176</ele>
        <time>2013-04-27T07:26:45.000Z</time>
      </trkpt>
      <trkpt lat="43.6431" lon="1.20821">
        <ele>219.60000610352</ele>
        <time>2013-04-27T07:26:47.000Z</time>
      </trkpt>
      <trkpt lat="43.64309" lon="1.20842">
        <ele>219.60000610352</ele>
        <time>2013-04-27T07:26:54.000Z</time>
      </trkpt>
      <trkpt lat="43.64308" lon="1.20859">
        <ele>219.80000305176</ele>
        <time>2013-04-27T07:26:59.000Z</time>
      </trkpt>
      <trkpt lat="43.64304" lon="1.20876">
        <ele>220.19999694824</ele>
        <time>2013-04-27T07:27:04.000Z</time>
      </trkpt>
      <trkpt lat="43.64307" lon="1.2089">
        <ele>220</ele>
        <time>2013-04-27T07:27:08.000Z</time>
      </trkpt>
      <trkpt lat="43.64308" lon="1.20892">
        <ele>219.80000305176</ele>
        <time>2013-04-27T07:27:09.000Z</time>
      </trkpt>
      <trkpt lat="43.64309" lon="1.20895">
        <ele>219.80000305176</ele>
        <time>2013-04-27T07:27:10.000Z</time>
      </trkpt>
      <trkpt lat="43.64319" lon="1.20906">
        <ele>218.60000610352</ele>
        <time>2013-04-27T07:27:14.000Z</time>
      </trkpt>
      <trkpt lat="43.64325" lon="1.20912">
        <ele>218</ele>
        <time>2013-04-27T07:27:16.000Z</time>
      </trkpt>
      <trkpt lat="43.64334" lon="1.20929">
        <ele>217</ele>
        <time>2013-04-27T07:27:21.000Z</time>
      </trkpt>
      <trkpt lat="43.64334" lon="1.20931">
        <ele>217</ele>
        <time>2013-04-27T07:27:22.000Z</time>
      </trkpt>
      <trkpt lat="43.64339" lon="1.20946">
        <ele>217.19999694824</ele>
        <time>2013-04-27T07:27:27.000Z</time>
      </trkpt>
      <trkpt lat="43.64344" lon="1.20966">
        <ele>217.39999389648</ele>
        <time>2013-04-27T07:27:33.000Z</time>
      </trkpt>
      <trkpt lat="43.64343" lon="1.20969">
        <ele>217.60000610352</ele>
        <time>2013-04-27T07:27:34.000Z</time>
      </trkpt>
      <trkpt lat="43.64343" lon="1.20983">
        <ele>217.60000610352</ele>
        <time>2013-04-27T07:27:38.000Z</time>
      </trkpt>
      <trkpt lat="43.64347" lon="1.21">
        <ele>217.80000305176</ele>
        <time>2013-04-27T07:27:43.000Z</time>
      </trkpt>
      <trkpt lat="43.64349" lon="1.21002">
        <ele>217.80000305176</ele>
        <time>2013-04-27T07:27:44.000Z</time>
      </trkpt>
      <trkpt lat="43.64353" lon="1.21014">
        <ele>217.80000305176</ele>
        <time>2013-04-27T07:27:48.000Z</time>
      </trkpt>
      <trkpt lat="43.6436" lon="1.21031">
        <ele>217.60000610352</ele>
        <time>2013-04-27T07:27:53.000Z</time>
      </trkpt>
      <trkpt lat="43.64361" lon="1.21035">
        <ele>217.60000610352</ele>
        <time>2013-04-27T07:27:54.000Z</time>
      </trkpt>
      <trkpt lat="43.64362" lon="1.21048">
        <ele>217.60000610352</ele>
        <time>2013-04-27T07:27:58.000Z</time>
      </trkpt>
      <trkpt lat="43.64363" lon="1.21051">
        <ele>217.39999389648</ele>
        <time>2013-04-27T07:27:59.000Z</time>
      </trkpt>
      <trkpt lat="43.64364" lon="1.21058">
        <ele>217.39999389648</ele>
        <time>2013-04-27T07:28:01.000Z</time>
      </trkpt>
      <trkpt lat="43.64368" lon="1.21064">
        <ele>217.19999694824</ele>
        <time>2013-04-27T07:28:04.000Z</time>
      </trkpt>
      <trkpt lat="43.64368" lon="1.21074">
        <ele>217</ele>
        <time>2013-04-27T07:28:08.000Z</time>
      </trkpt>
      <trkpt lat="43.64368" lon="1.21076">
        <ele>217</ele>
        <time>2013-04-27T07:28:09.000Z</time>
      </trkpt>
      <trkpt lat="43.64373" lon="1.21093">
        <ele>216.80000305176</ele>
        <time>2013-04-27T07:28:15.000Z</time>
      </trkpt>
      <trkpt lat="43.64375" lon="1.21099">
        <ele>216.80000305176</ele>
        <time>2013-04-27T07:28:17.000Z</time>
      </trkpt>
      <trkpt lat="43.6438" lon="1.21114">
        <ele>216.80000305176</ele>
        <time>2013-04-27T07:28:22.000Z</time>
      </trkpt>
      <trkpt lat="43.64385" lon="1.21128">
        <ele>216.80000305176</ele>
        <time>2013-04-27T07:28:26.000Z</time>
      </trkpt>
      <trkpt lat="43.64393" lon="1.21138">
        <ele>216.19999694824</ele>
        <time>2013-04-27T07:28:30.000Z</time>
      </trkpt>
      <trkpt lat="43.64399" lon="1.21151">
        <ele>215.80000305176</ele>
        <time>2013-04-27T07:28:35.000Z</time>
      </trkpt>
      <trkpt lat="43.64405" lon="1.21161">
        <ele>215.19999694824</ele>
        <time>2013-04-27T07:28:39.000Z</time>
      </trkpt>
      <trkpt lat="43.64406" lon="1.21165">
        <ele>215</ele>
        <time>2013-04-27T07:28:41.000Z</time>
      </trkpt>
      <trkpt lat="43.64416" lon="1.21176">
        <ele>215</ele>
        <time>2013-04-27T07:28:46.000Z</time>
      </trkpt>
      <trkpt lat="43.64421" lon="1.21179">
        <ele>215</ele>
        <time>2013-04-27T07:28:49.000Z</time>
      </trkpt>
      <trkpt lat="43.6443" lon="1.21187">
        <ele>215.19999694824</ele>
        <time>2013-04-27T07:28:53.000Z</time>
      </trkpt>
      <trkpt lat="43.64433" lon="1.21189">
        <ele>215.19999694824</ele>
        <time>2013-04-27T07:28:54.000Z</time>
      </trkpt>
      <trkpt lat="43.64439" lon="1.21192">
        <ele>215</ele>
        <time>2013-04-27T07:28:57.000Z</time>
      </trkpt>
      <trkpt lat="43.64451" lon="1.21196">
        <ele>214.39999389648</ele>
        <time>2013-04-27T07:29:02.000Z</time>
      </trkpt>
      <trkpt lat="43.6446" lon="1.21202">
        <ele>214</ele>
        <time>2013-04-27T07:29:06.000Z</time>
      </trkpt>
      <trkpt lat="43.64462" lon="1.21204">
        <ele>214</ele>
        <time>2013-04-27T07:29:07.000Z</time>
      </trkpt>
      <trkpt lat="43.64464" lon="1.21206">
        <ele>213.80000305176</ele>
        <time>2013-04-27T07:29:08.000Z</time>
      </trkpt>
      <trkpt lat="43.64466" lon="1.21208">
        <ele>213.80000305176</ele>
        <time>2013-04-27T07:29:09.000Z</time>
      </trkpt>
      <trkpt lat="43.64476" lon="1.21218">
        <ele>213.39999389648</ele>
        <time>2013-04-27T07:29:14.000Z</time>
      </trkpt>
      <trkpt lat="43.64475" lon="1.21225">
        <ele>214</ele>
        <time>2013-04-27T07:29:17.000Z</time>
      </trkpt>
      <trkpt lat="43.64474" lon="1.21227">
        <ele>214.19999694824</ele>
        <time>2013-04-27T07:29:18.000Z</time>
      </trkpt>
      <trkpt lat="43.64474" lon="1.21231">
        <ele>214.60000610352</ele>
        <time>2013-04-27T07:29:20.000Z</time>
      </trkpt>
      <trkpt lat="43.6447" lon="1.21244">
        <ele>215.80000305176</ele>
        <time>2013-04-27T07:29:25.000Z</time>
      </trkpt>
      <trkpt lat="43.64464" lon="1.21258">
        <ele>217.60000610352</ele>
        <time>2013-04-27T07:29:31.000Z</time>
      </trkpt>
      <trkpt lat="43.6446" lon="1.21268">
        <ele>219</ele>
        <time>2013-04-27T07:29:35.000Z</time>
      </trkpt>
      <trkpt lat="43.64458" lon="1.21276">
        <ele>219.80000305176</ele>
        <time>2013-04-27T07:29:38.000Z</time>
      </trkpt>
      <trkpt lat="43.64453" lon="1.21285">
        <ele>221</ele>
        <time>2013-04-27T07:29:42.000Z</time>
      </trkpt>
      <trkpt lat="43.64452" lon="1.21289">
        <ele>221.39999389648</ele>
        <time>2013-04-27T07:29:44.000Z</time>
      </trkpt>
      <trkpt lat="43.64449" lon="1.21296">
        <ele>222.39999389648</ele>
        <time>2013-04-27T07:29:47.000Z</time>
      </trkpt>
      <trkpt lat="43.64443" lon="1.21306">
        <ele>223.60000610352</ele>
        <time>2013-04-27T07:29:52.000Z</time>
      </trkpt>
      <trkpt lat="43.64441" lon="1.21311">
        <ele>224.19999694824</ele>
        <time>2013-04-27T07:29:54.000Z</time>
      </trkpt>
      <trkpt lat="43.64436" lon="1.21327">
        <ele>225.60000610352</ele>
        <time>2013-04-27T07:30:01.000Z</time>
      </trkpt>
      <trkpt lat="43.64432" lon="1.21335">
        <ele>226.60000610352</ele>
        <time>2013-04-27T07:30:05.000Z</time>
      </trkpt>
      <trkpt lat="43.64428" lon="1.21347">
        <ele>227.39999389648</ele>
        <time>2013-04-27T07:30:10.000Z</time>
      </trkpt>
      <trkpt lat="43.64424" lon="1.2136">
        <ele>228.19999694824</ele>
        <time>2013-04-27T07:30:15.000Z</time>
      </trkpt>
      <trkpt lat="43.64418" lon="1.21376">
        <ele>229.39999389648</ele>
        <time>2013-04-27T07:30:23.000Z</time>
      </trkpt>
      <trkpt lat="43.64411" lon="1.21388">
        <ele>230</ele>
        <time>2013-04-27T07:30:29.000Z</time>
      </trkpt>
      <trkpt lat="43.64404" lon="1.21405">
        <ele>230.39999389648</ele>
        <time>2013-04-27T07:30:35.000Z</time>
      </trkpt>
      <trkpt lat="43.64398" lon="1.21421">
        <ele>230.60000610352</ele>
        <time>2013-04-27T07:30:40.000Z</time>
      </trkpt>
      <trkpt lat="43.64391" lon="1.21436">
        <ele>230.60000610352</ele>
        <time>2013-04-27T07:30:45.000Z</time>
      </trkpt>
      <trkpt lat="43.64384" lon="1.21454">
        <ele>230.60000610352</ele>
        <time>2013-04-27T07:30:50.000Z</time>
      </trkpt>
      <trkpt lat="43.64382" lon="1.2146">
        <ele>230.39999389648</ele>
        <time>2013-04-27T07:30:52.000Z</time>
      </trkpt>
      <trkpt lat="43.64389" lon="1.21472">
        <ele>230.60000610352</ele>
        <time>2013-04-27T07:30:56.000Z</time>
      </trkpt>
      <trkpt lat="43.64399" lon="1.21485">
        <ele>230.60000610352</ele>
        <time>2013-04-27T07:31:01.000Z</time>
      </trkpt>
      <trkpt lat="43.6441" lon="1.21494">
        <ele>230.80000305176</ele>
        <time>2013-04-27T07:31:06.000Z</time>
      </trkpt>
      <trkpt lat="43.64416" lon="1.21497">
        <ele>230.80000305176</ele>
        <time>2013-04-27T07:31:09.000Z</time>
      </trkpt>
      <trkpt lat="43.64428" lon="1.21497">
        <ele>230.39999389648</ele>
        <time>2013-04-27T07:31:14.000Z</time>
      </trkpt>
      <trkpt lat="43.64431" lon="1.21497">
        <ele>230.39999389648</ele>
        <time>2013-04-27T07:31:15.000Z</time>
      </trkpt>
      <trkpt lat="43.64445" lon="1.21497">
        <ele>229.80000305176</ele>
        <time>2013-04-27T07:31:21.000Z</time>
      </trkpt>
      <trkpt lat="43.64448" lon="1.21498">
        <ele>229.80000305176</ele>
        <time>2013-04-27T07:31:22.000Z</time>
      </trkpt>
      <trkpt lat="43.6446" lon="1.215">
        <ele>229.39999389648</ele>
        <time>2013-04-27T07:31:27.000Z</time>
      </trkpt>
      <trkpt lat="43.64476" lon="1.21504">
        <ele>228.60000610352</ele>
        <time>2013-04-27T07:31:33.000Z</time>
      </trkpt>
      <trkpt lat="43.64489" lon="1.21507">
        <ele>228</ele>
        <time>2013-04-27T07:31:38.000Z</time>
      </trkpt>
      <trkpt lat="43.64509" lon="1.21506">
        <ele>227.60000610352</ele>
        <time>2013-04-27T07:31:45.000Z</time>
      </trkpt>
      <trkpt lat="43.6452" lon="1.21503">
        <ele>227.60000610352</ele>
        <time>2013-04-27T07:31:49.000Z</time>
      </trkpt>
      <trkpt lat="43.64522" lon="1.21501">
        <ele>227.60000610352</ele>
        <time>2013-04-27T07:31:50.000Z</time>
      </trkpt>
      <trkpt lat="43.64533" lon="1.21497">
        <ele>227.39999389648</ele>
        <time>2013-04-27T07:31:54.000Z</time>
      </trkpt>
      <trkpt lat="43.64545" lon="1.21489">
        <ele>227</ele>
        <time>2013-04-27T07:31:59.000Z</time>
      </trkpt>
      <trkpt lat="43.6456" lon="1.21486">
        <ele>226.80000305176</ele>
        <time>2013-04-27T07:32:04.000Z</time>
      </trkpt>
      <trkpt lat="43.64577" lon="1.21488">
        <ele>226.60000610352</ele>
        <time>2013-04-27T07:32:10.000Z</time>
      </trkpt>
      <trkpt lat="43.64592" lon="1.21489">
        <ele>226.19999694824</ele>
        <time>2013-04-27T07:32:15.000Z</time>
      </trkpt>
      <trkpt lat="43.64608" lon="1.21492">
        <ele>225.80000305176</ele>
        <time>2013-04-27T07:32:20.000Z</time>
      </trkpt>
      <trkpt lat="43.64624" lon="1.21491">
        <ele>225.19999694824</ele>
        <time>2013-04-27T07:32:25.000Z</time>
      </trkpt>
      <trkpt lat="43.64651" lon="1.21484">
        <ele>224.19999694824</ele>
        <time>2013-04-27T07:32:36.000Z</time>
      </trkpt>
      <trkpt lat="43.64655" lon="1.21481">
        <ele>224</ele>
        <time>2013-04-27T07:32:38.000Z</time>
      </trkpt>
      <trkpt lat="43.64672" lon="1.21472">
        <ele>223.60000610352</ele>
        <time>2013-04-27T07:32:45.000Z</time>
      </trkpt>
      <trkpt lat="43.64685" lon="1.21474">
        <ele>223.80000305176</ele>
        <time>2013-04-27T07:32:50.000Z</time>
      </trkpt>
      <trkpt lat="43.6469" lon="1.21469">
        <ele>223.80000305176</ele>
        <time>2013-04-27T07:32:52.000Z</time>
      </trkpt>
      <trkpt lat="43.64705" lon="1.21454">
        <ele>223.80000305176</ele>
        <time>2013-04-27T07:32:58.000Z</time>
      </trkpt>
      <trkpt lat="43.64717" lon="1.21457">
        <ele>224</ele>
        <time>2013-04-27T07:33:03.000Z</time>
      </trkpt>
      <trkpt lat="43.64719" lon="1.21456">
        <ele>224</ele>
        <time>2013-04-27T07:33:04.000Z</time>
      </trkpt>
      <trkpt lat="43.64738" lon="1.21448">
        <ele>224.19999694824</ele>
        <time>2013-04-27T07:33:11.000Z</time>
      </trkpt>
      <trkpt lat="43.64753" lon="1.21446">
        <ele>224.39999389648</ele>
        <time>2013-04-27T07:33:16.000Z</time>
      </trkpt>
      <trkpt lat="43.64768" lon="1.21446">
        <ele>224.80000305176</ele>
        <time>2013-04-27T07:33:22.000Z</time>
      </trkpt>
      <trkpt lat="43.64783" lon="1.21451">
        <ele>225.19999694824</ele>
        <time>2013-04-27T07:33:28.000Z</time>
      </trkpt>
      <trkpt lat="43.64797" lon="1.21452">
        <ele>225.60000610352</ele>
        <time>2013-04-27T07:33:33.000Z</time>
      </trkpt>
      <trkpt lat="43.64808" lon="1.21449">
        <ele>225.80000305176</ele>
        <time>2013-04-27T07:33:37.000Z</time>
      </trkpt>
      <trkpt lat="43.64822" lon="1.21444">
        <ele>226.19999694824</ele>
        <time>2013-04-27T07:33:42.000Z</time>
      </trkpt>
      <trkpt lat="43.64835" lon="1.21443">
        <ele>226.60000610352</ele>
        <time>2013-04-27T07:33:46.000Z</time>
      </trkpt>
      <trkpt lat="43.64849" lon="1.21436">
        <ele>226.39999389648</ele>
        <time>2013-04-27T07:33:51.000Z</time>
      </trkpt>
      <trkpt lat="43.64864" lon="1.2143">
        <ele>226.39999389648</ele>
        <time>2013-04-27T07:33:56.000Z</time>
      </trkpt>
      <trkpt lat="43.64868" lon="1.21426">
        <ele>226.39999389648</ele>
        <time>2013-04-27T07:33:58.000Z</time>
      </trkpt>
      <trkpt lat="43.6487" lon="1.21413">
        <ele>226.19999694824</ele>
        <time>2013-04-27T07:34:02.000Z</time>
      </trkpt>
      <trkpt lat="43.64871" lon="1.21399">
        <ele>225.39999389648</ele>
        <time>2013-04-27T07:34:06.000Z</time>
      </trkpt>
      <trkpt lat="43.64868" lon="1.21381">
        <ele>224.39999389648</ele>
        <time>2013-04-27T07:34:11.000Z</time>
      </trkpt>
      <trkpt lat="43.64872" lon="1.21368">
        <ele>223.60000610352</ele>
        <time>2013-04-27T07:34:15.000Z</time>
      </trkpt>
      <trkpt lat="43.64872" lon="1.21353">
        <ele>222.80000305176</ele>
        <time>2013-04-27T07:34:19.000Z</time>
      </trkpt>
      <trkpt lat="43.64881" lon="1.21343">
        <ele>222.80000305176</ele>
        <time>2013-04-27T07:34:23.000Z</time>
      </trkpt>
      <trkpt lat="43.64886" lon="1.2134">
        <ele>223</ele>
        <time>2013-04-27T07:34:25.000Z</time>
      </trkpt>
      <trkpt lat="43.64891" lon="1.21336">
        <ele>223.19999694824</ele>
        <time>2013-04-27T07:34:27.000Z</time>
      </trkpt>
      <trkpt lat="43.64895" lon="1.21335">
        <ele>223.39999389648</ele>
        <time>2013-04-27T07:34:29.000Z</time>
      </trkpt>
      <trkpt lat="43.64904" lon="1.21323">
        <ele>223</ele>
        <time>2013-04-27T07:34:34.000Z</time>
      </trkpt>
      <trkpt lat="43.64905" lon="1.21321">
        <ele>222.80000305176</ele>
        <time>2013-04-27T07:34:35.000Z</time>
      </trkpt>
      <trkpt lat="43.64918" lon="1.21309">
        <ele>223</ele>
        <time>2013-04-27T07:34:40.000Z</time>
      </trkpt>
      <trkpt lat="43.64927" lon="1.21292">
        <ele>221.80000305176</ele>
        <time>2013-04-27T07:34:46.000Z</time>
      </trkpt>
      <trkpt lat="43.64938" lon="1.21283">
        <ele>221.80000305176</ele>
        <time>2013-04-27T07:34:51.000Z</time>
      </trkpt>
      <trkpt lat="43.64945" lon="1.21271">
        <ele>221.39999389648</ele>
        <time>2013-04-27T07:34:55.000Z</time>
      </trkpt>
      <trkpt lat="43.64952" lon="1.2126">
        <ele>221.39999389648</ele>
        <time>2013-04-27T07:34:59.000Z</time>
      </trkpt>
      <trkpt lat="43.64955" lon="1.21255">
        <ele>221.39999389648</ele>
        <time>2013-04-27T07:35:01.000Z</time>
      </trkpt>
      <trkpt lat="43.6496" lon="1.21251">
        <ele>221.60000610352</ele>
        <time>2013-04-27T07:35:03.000Z</time>
      </trkpt>
      <trkpt lat="43.64968" lon="1.21242">
        <ele>220.80000305176</ele>
        <time>2013-04-27T07:35:07.000Z</time>
      </trkpt>
      <trkpt lat="43.6498" lon="1.21236">
        <ele>220.80000305176</ele>
        <time>2013-04-27T07:35:12.000Z</time>
      </trkpt>
      <trkpt lat="43.64988" lon="1.21242">
        <ele>222.39999389648</ele>
        <time>2013-04-27T07:35:17.000Z</time>
      </trkpt>
      <trkpt lat="43.64993" lon="1.21239">
        <ele>222.39999389648</ele>
        <time>2013-04-27T07:35:19.000Z</time>
      </trkpt>
      <trkpt lat="43.65001" lon="1.21234">
        <ele>222.19999694824</ele>
        <time>2013-04-27T07:35:22.000Z</time>
      </trkpt>
      <trkpt lat="43.65023" lon="1.21233">
        <ele>222.19999694824</ele>
        <time>2013-04-27T07:35:29.000Z</time>
      </trkpt>
      <trkpt lat="43.65036" lon="1.21235">
        <ele>222.60000610352</ele>
        <time>2013-04-27T07:35:33.000Z</time>
      </trkpt>
      <trkpt lat="43.6505" lon="1.21244">
        <ele>224</ele>
        <time>2013-04-27T07:35:38.000Z</time>
      </trkpt>
      <trkpt lat="43.6506" lon="1.21247">
        <ele>224.60000610352</ele>
        <time>2013-04-27T07:35:42.000Z</time>
      </trkpt>
      <trkpt lat="43.65068" lon="1.21245">
        <ele>224.19999694824</ele>
        <time>2013-04-27T07:35:45.000Z</time>
      </trkpt>
      <trkpt lat="43.6508" lon="1.21243">
        <ele>224</ele>
        <time>2013-04-27T07:35:49.000Z</time>
      </trkpt>
      <trkpt lat="43.65083" lon="1.21243">
        <ele>224</ele>
        <time>2013-04-27T07:35:50.000Z</time>
      </trkpt>
      <trkpt lat="43.65097" lon="1.21243">
        <ele>223.39999389648</ele>
        <time>2013-04-27T07:35:56.000Z</time>
      </trkpt>
      <trkpt lat="43.651" lon="1.21244">
        <ele>223.39999389648</ele>
        <time>2013-04-27T07:35:57.000Z</time>
      </trkpt>
      <trkpt lat="43.65114" lon="1.21239">
        <ele>222</ele>
        <time>2013-04-27T07:36:02.000Z</time>
      </trkpt>
      <trkpt lat="43.65128" lon="1.21238">
        <ele>221.19999694824</ele>
        <time>2013-04-27T07:36:06.000Z</time>
      </trkpt>
      <trkpt lat="43.65131" lon="1.21238">
        <ele>221</ele>
        <time>2013-04-27T07:36:07.000Z</time>
      </trkpt>
      <trkpt lat="43.65139" lon="1.21239">
        <ele>220.80000305176</ele>
        <time>2013-04-27T07:36:10.000Z</time>
      </trkpt>
      <trkpt lat="43.65154" lon="1.21239">
        <ele>220</ele>
        <time>2013-04-27T07:36:15.000Z</time>
      </trkpt>
      <trkpt lat="43.65157" lon="1.21239">
        <ele>220</ele>
        <time>2013-04-27T07:36:16.000Z</time>
      </trkpt>
      <trkpt lat="43.65174" lon="1.21244">
        <ele>219.60000610352</ele>
        <time>2013-04-27T07:36:22.000Z</time>
      </trkpt>
      <trkpt lat="43.65187" lon="1.21247">
        <ele>219</ele>
        <time>2013-04-27T07:36:26.000Z</time>
      </trkpt>
      <trkpt lat="43.65203" lon="1.21251">
        <ele>218.19999694824</ele>
        <time>2013-04-27T07:36:31.000Z</time>
      </trkpt>
      <trkpt lat="43.65222" lon="1.21256">
        <ele>217</ele>
        <time>2013-04-27T07:36:37.000Z</time>
      </trkpt>
      <trkpt lat="43.65232" lon="1.2126">
        <ele>216.19999694824</ele>
        <time>2013-04-27T07:36:40.000Z</time>
      </trkpt>
      <trkpt lat="43.65243" lon="1.21262">
        <ele>215.60000610352</ele>
        <time>2013-04-27T07:36:44.000Z</time>
      </trkpt>
      <trkpt lat="43.65252" lon="1.21264">
        <ele>215</ele>
        <time>2013-04-27T07:36:48.000Z</time>
      </trkpt>
      <trkpt lat="43.65267" lon="1.21264">
        <ele>214</ele>
        <time>2013-04-27T07:36:53.000Z</time>
      </trkpt>
      <trkpt lat="43.65284" lon="1.21269">
        <ele>213</ele>
        <time>2013-04-27T07:36:58.000Z</time>
      </trkpt>
      <trkpt lat="43.65295" lon="1.21272">
        <ele>212.39999389648</ele>
        <time>2013-04-27T07:37:02.000Z</time>
      </trkpt>
      <trkpt lat="43.65308" lon="1.21278">
        <ele>211.60000610352</ele>
        <time>2013-04-27T07:37:07.000Z</time>
      </trkpt>
      <trkpt lat="43.65321" lon="1.21281">
        <ele>210.60000610352</ele>
        <time>2013-04-27T07:37:11.000Z</time>
      </trkpt>
      <trkpt lat="43.65331" lon="1.21284">
        <ele>210</ele>
        <time>2013-04-27T07:37:16.000Z</time>
      </trkpt>
      <trkpt lat="43.65342" lon="1.21287">
        <ele>209.39999389648</ele>
        <time>2013-04-27T07:37:20.000Z</time>
      </trkpt>
      <trkpt lat="43.65358" lon="1.21291">
        <ele>208.60000610352</ele>
        <time>2013-04-27T07:37:25.000Z</time>
      </trkpt>
      <trkpt lat="43.65364" lon="1.21293">
        <ele>208.19999694824</ele>
        <time>2013-04-27T07:37:27.000Z</time>
      </trkpt>
      <trkpt lat="43.65385" lon="1.21285">
        <ele>207.19999694824</ele>
        <time>2013-04-27T07:37:34.000Z</time>
      </trkpt>
      <trkpt lat="43.65398" lon="1.21276">
        <ele>206.60000610352</ele>
        <time>2013-04-27T07:37:39.000Z</time>
      </trkpt>
      <trkpt lat="43.65411" lon="1.21272">
        <ele>206</ele>
        <time>2013-04-27T07:37:44.000Z</time>
      </trkpt>
      <trkpt lat="43.65423" lon="1.21264">
        <ele>205.19999694824</ele>
        <time>2013-04-27T07:37:48.000Z</time>
      </trkpt>
      <trkpt lat="43.65437" lon="1.21267">
        <ele>204.19999694824</ele>
        <time>2013-04-27T07:37:53.000Z</time>
      </trkpt>
      <trkpt lat="43.65448" lon="1.2127">
        <ele>203.39999389648</ele>
        <time>2013-04-27T07:37:57.000Z</time>
      </trkpt>
      <trkpt lat="43.65451" lon="1.21272">
        <ele>203.19999694824</ele>
        <time>2013-04-27T07:37:58.000Z</time>
      </trkpt>
      <trkpt lat="43.65464" lon="1.21282">
        <ele>202.39999389648</ele>
        <time>2013-04-27T07:38:03.000Z</time>
      </trkpt>
      <trkpt lat="43.65466" lon="1.21282">
        <ele>202.19999694824</ele>
        <time>2013-04-27T07:38:04.000Z</time>
      </trkpt>
      <trkpt lat="43.65476" lon="1.21281">
        <ele>201.60000610352</ele>
        <time>2013-04-27T07:38:08.000Z</time>
      </trkpt>
      <trkpt lat="43.65486" lon="1.21286">
        <ele>200.80000305176</ele>
        <time>2013-04-27T07:38:12.000Z</time>
      </trkpt>
      <trkpt lat="43.65499" lon="1.2129">
        <ele>200</ele>
        <time>2013-04-27T07:38:16.000Z</time>
      </trkpt>
      <trkpt lat="43.65501" lon="1.21293">
        <ele>199.80000305176</ele>
        <time>2013-04-27T07:38:17.000Z</time>
      </trkpt>
      <trkpt lat="43.65512" lon="1.21302">
        <ele>199</ele>
        <time>2013-04-27T07:38:21.000Z</time>
      </trkpt>
      <trkpt lat="43.65518" lon="1.21313">
        <ele>198.60000610352</ele>
        <time>2013-04-27T07:38:25.000Z</time>
      </trkpt>
      <trkpt lat="43.65508" lon="1.21331">
        <ele>199.60000610352</ele>
        <time>2013-04-27T07:38:32.000Z</time>
      </trkpt>
      <trkpt lat="43.65508" lon="1.21341">
        <ele>199.60000610352</ele>
        <time>2013-04-27T07:38:35.000Z</time>
      </trkpt>
      <trkpt lat="43.65515" lon="1.21355">
        <ele>199.39999389648</ele>
        <time>2013-04-27T07:38:39.000Z</time>
      </trkpt>
      <trkpt lat="43.6552" lon="1.21365">
        <ele>199.19999694824</ele>
        <time>2013-04-27T07:38:42.000Z</time>
      </trkpt>
      <trkpt lat="43.65532" lon="1.2136">
        <ele>198.80000305176</ele>
        <time>2013-04-27T07:38:47.000Z</time>
      </trkpt>
      <trkpt lat="43.65535" lon="1.21358">
        <ele>198.60000610352</ele>
        <time>2013-04-27T07:38:48.000Z</time>
      </trkpt>
      <trkpt lat="43.65555" lon="1.21341">
        <ele>197.39999389648</ele>
        <time>2013-04-27T07:38:56.000Z</time>
      </trkpt>
      <trkpt lat="43.65567" lon="1.21327">
        <ele>196.39999389648</ele>
        <time>2013-04-27T07:39:01.000Z</time>
      </trkpt>
      <trkpt lat="43.65569" lon="1.21326">
        <ele>196.19999694824</ele>
        <time>2013-04-27T07:39:02.000Z</time>
      </trkpt>
      <trkpt lat="43.65582" lon="1.21315">
        <ele>194.60000610352</ele>
        <time>2013-04-27T07:39:07.000Z</time>
      </trkpt>
      <trkpt lat="43.65585" lon="1.21314">
        <ele>194.39999389648</ele>
        <time>2013-04-27T07:39:08.000Z</time>
      </trkpt>
      <trkpt lat="43.6559" lon="1.21311">
        <ele>194</ele>
        <time>2013-04-27T07:39:10.000Z</time>
      </trkpt>
      <trkpt lat="43.65599" lon="1.21305">
        <ele>193</ele>
        <time>2013-04-27T07:39:14.000Z</time>
      </trkpt>
      <trkpt lat="43.65613" lon="1.21296">
        <ele>191.39999389648</ele>
        <time>2013-04-27T07:39:19.000Z</time>
      </trkpt>
      <trkpt lat="43.65614" lon="1.21293">
        <ele>191.19999694824</ele>
        <time>2013-04-27T07:39:20.000Z</time>
      </trkpt>
      <trkpt lat="43.65622" lon="1.21282">
        <ele>189.80000305176</ele>
        <time>2013-04-27T07:39:24.000Z</time>
      </trkpt>
      <trkpt lat="43.65632" lon="1.21274">
        <ele>188.39999389648</ele>
        <time>2013-04-27T07:39:28.000Z</time>
      </trkpt>
      <trkpt lat="43.65639" lon="1.21268">
        <ele>187.39999389648</ele>
        <time>2013-04-27T07:39:31.000Z</time>
      </trkpt>
      <trkpt lat="43.65651" lon="1.21254">
        <ele>185.39999389648</ele>
        <time>2013-04-27T07:39:38.000Z</time>
      </trkpt>
      <trkpt lat="43.65653" lon="1.21251">
        <ele>185</ele>
        <time>2013-04-27T07:39:39.000Z</time>
      </trkpt>
      <trkpt lat="43.65666" lon="1.21244">
        <ele>183.60000610352</ele>
        <time>2013-04-27T07:39:44.000Z</time>
      </trkpt>
      <trkpt lat="43.65673" lon="1.21238">
        <ele>182.80000305176</ele>
        <time>2013-04-27T07:39:48.000Z</time>
      </trkpt>
      <trkpt lat="43.65675" lon="1.21238">
        <ele>182.80000305176</ele>
        <time>2013-04-27T07:39:49.000Z</time>
      </trkpt>
      <trkpt lat="43.65683" lon="1.21235">
        <ele>182.19999694824</ele>
        <time>2013-04-27T07:39:53.000Z</time>
      </trkpt>
      <trkpt lat="43.65691" lon="1.21236">
        <ele>181.80000305176</ele>
        <time>2013-04-27T07:39:57.000Z</time>
      </trkpt>
      <trkpt lat="43.65694" lon="1.21235">
        <ele>181.80000305176</ele>
        <time>2013-04-27T07:39:58.000Z</time>
      </trkpt>
      <trkpt lat="43.65698" lon="1.21236">
        <ele>181.60000610352</ele>
        <time>2013-04-27T07:39:59.000Z</time>
      </trkpt>
      <trkpt lat="43.65706" lon="1.21248">
        <ele>181.39999389648</ele>
        <time>2013-04-27T07:40:04.000Z</time>
      </trkpt>
      <trkpt lat="43.65713" lon="1.21259">
        <ele>182</ele>
        <time>2013-04-27T07:40:08.000Z</time>
      </trkpt>
      <trkpt lat="43.65716" lon="1.21267">
        <ele>182.80000305176</ele>
        <time>2013-04-27T07:40:13.000Z</time>
      </trkpt>
      <trkpt lat="43.65721" lon="1.21267">
        <ele>182.39999389648</ele>
        <time>2013-04-27T07:40:17.000Z</time>
      </trkpt>
      <trkpt lat="43.65722" lon="1.21275">
        <ele>183.39999389648</ele>
        <time>2013-04-27T07:40:20.000Z</time>
      </trkpt>
      <trkpt lat="43.65723" lon="1.21277">
        <ele>183.60000610352</ele>
        <time>2013-04-27T07:40:21.000Z</time>
      </trkpt>
      <trkpt lat="43.65724" lon="1.21288">
        <ele>184.80000305176</ele>
        <time>2013-04-27T07:40:25.000Z</time>
      </trkpt>
      <trkpt lat="43.65726" lon="1.21295">
        <ele>185.39999389648</ele>
        <time>2013-04-27T07:40:30.000Z</time>
      </trkpt>
      <trkpt lat="43.65726" lon="1.21298">
        <ele>185.80000305176</ele>
        <time>2013-04-27T07:40:31.000Z</time>
      </trkpt>
      <trkpt lat="43.65725" lon="1.213">
        <ele>186</ele>
        <time>2013-04-27T07:40:33.000Z</time>
      </trkpt>
      <trkpt lat="43.65725" lon="1.21304">
        <ele>186.60000610352</ele>
        <time>2013-04-27T07:40:36.000Z</time>
      </trkpt>
      <trkpt lat="43.65728" lon="1.21314">
        <ele>187.60000610352</ele>
        <time>2013-04-27T07:40:41.000Z</time>
      </trkpt>
      <trkpt lat="43.65729" lon="1.21315">
        <ele>187.60000610352</ele>
        <time>2013-04-27T07:40:42.000Z</time>
      </trkpt>
      <trkpt lat="43.65729" lon="1.21319">
        <ele>188</ele>
        <time>2013-04-27T07:40:44.000Z</time>
      </trkpt>
      <trkpt lat="43.65733" lon="1.21329">
        <ele>189</ele>
        <time>2013-04-27T07:40:49.000Z</time>
      </trkpt>
      <trkpt lat="43.6574" lon="1.21335">
        <ele>189.39999389648</ele>
        <time>2013-04-27T07:40:53.000Z</time>
      </trkpt>
      <trkpt lat="43.65745" lon="1.21334">
        <ele>189.19999694824</ele>
        <time>2013-04-27T07:40:57.000Z</time>
      </trkpt>
      <trkpt lat="43.65746" lon="1.21335">
        <ele>189.19999694824</ele>
        <time>2013-04-27T07:40:59.000Z</time>
      </trkpt>
      <trkpt lat="43.65749" lon="1.21337">
        <ele>189.19999694824</ele>
        <time>2013-04-27T07:41:01.000Z</time>
      </trkpt>
      <trkpt lat="43.65755" lon="1.21344">
        <ele>189</ele>
        <time>2013-04-27T07:41:05.000Z</time>
      </trkpt>
      <trkpt lat="43.65758" lon="1.21348">
        <ele>188.80000305176</ele>
        <time>2013-04-27T07:41:07.000Z</time>
      </trkpt>
      <trkpt lat="43.65759" lon="1.21357">
        <ele>189.19999694824</ele>
        <time>2013-04-27T07:41:11.000Z</time>
      </trkpt>
      <trkpt lat="43.65764" lon="1.21353">
        <ele>188.39999389648</ele>
        <time>2013-04-27T07:41:14.000Z</time>
      </trkpt>
      <trkpt lat="43.65769" lon="1.2135">
        <ele>187.80000305176</ele>
        <time>2013-04-27T07:41:16.000Z</time>
      </trkpt>
      <trkpt lat="43.65772" lon="1.21347">
        <ele>187.19999694824</ele>
        <time>2013-04-27T07:41:18.000Z</time>
      </trkpt>
      <trkpt lat="43.65784" lon="1.21348">
        <ele>186.19999694824</ele>
        <time>2013-04-27T07:41:23.000Z</time>
      </trkpt>
      <trkpt lat="43.65795" lon="1.21349">
        <ele>185.19999694824</ele>
        <time>2013-04-27T07:41:27.000Z</time>
      </trkpt>
      <trkpt lat="43.65797" lon="1.21351">
        <ele>185.19999694824</ele>
        <time>2013-04-27T07:41:28.000Z</time>
      </trkpt>
      <trkpt lat="43.65799" lon="1.21351">
        <ele>184.80000305176</ele>
        <time>2013-04-27T07:41:29.000Z</time>
      </trkpt>
      <trkpt lat="43.65816" lon="1.21353">
        <ele>183.39999389648</ele>
        <time>2013-04-27T07:41:36.000Z</time>
      </trkpt>
      <trkpt lat="43.65823" lon="1.21355">
        <ele>183</ele>
        <time>2013-04-27T07:41:40.000Z</time>
      </trkpt>
      <trkpt lat="43.65833" lon="1.21384">
        <ele>184.80000305176</ele>
        <time>2013-04-27T07:41:52.000Z</time>
      </trkpt>
      <trkpt lat="43.65834" lon="1.21391">
        <ele>185.39999389648</ele>
        <time>2013-04-27T07:41:54.000Z</time>
      </trkpt>
      <trkpt lat="43.65828" lon="1.21401">
        <ele>186.80000305176</ele>
        <time>2013-04-27T07:41:58.000Z</time>
      </trkpt>
      <trkpt lat="43.65826" lon="1.21403">
        <ele>187.19999694824</ele>
        <time>2013-04-27T07:41:59.000Z</time>
      </trkpt>
      <trkpt lat="43.65822" lon="1.21414">
        <ele>188.39999389648</ele>
        <time>2013-04-27T07:42:03.000Z</time>
      </trkpt>
      <trkpt lat="43.65814" lon="1.21424">
        <ele>189.39999389648</ele>
        <time>2013-04-27T07:42:08.000Z</time>
      </trkpt>
      <trkpt lat="43.65805" lon="1.21437">
        <ele>190.19999694824</ele>
        <time>2013-04-27T07:42:13.000Z</time>
      </trkpt>
      <trkpt lat="43.65804" lon="1.21439">
        <ele>190.39999389648</ele>
        <time>2013-04-27T07:42:14.000Z</time>
      </trkpt>
      <trkpt lat="43.65796" lon="1.21449">
        <ele>191.19999694824</ele>
        <time>2013-04-27T07:42:18.000Z</time>
      </trkpt>
      <trkpt lat="43.6579" lon="1.21461">
        <ele>191.80000305176</ele>
        <time>2013-04-27T07:42:22.000Z</time>
      </trkpt>
      <trkpt lat="43.65789" lon="1.21464">
        <ele>192</ele>
        <time>2013-04-27T07:42:23.000Z</time>
      </trkpt>
      <trkpt lat="43.65778" lon="1.21482">
        <ele>193</ele>
        <time>2013-04-27T07:42:30.000Z</time>
      </trkpt>
      <trkpt lat="43.6577" lon="1.21493">
        <ele>193.80000305176</ele>
        <time>2013-04-27T07:42:35.000Z</time>
      </trkpt>
      <trkpt lat="43.65763" lon="1.21504">
        <ele>194.39999389648</ele>
        <time>2013-04-27T07:42:39.000Z</time>
      </trkpt>
      <trkpt lat="43.65755" lon="1.21514">
        <ele>195</ele>
        <time>2013-04-27T07:42:44.000Z</time>
      </trkpt>
      <trkpt lat="43.65748" lon="1.21527">
        <ele>195.60000610352</ele>
        <time>2013-04-27T07:42:49.000Z</time>
      </trkpt>
      <trkpt lat="43.65739" lon="1.21539">
        <ele>196.19999694824</ele>
        <time>2013-04-27T07:42:54.000Z</time>
      </trkpt>
      <trkpt lat="43.6573" lon="1.21552">
        <ele>196.60000610352</ele>
        <time>2013-04-27T07:43:00.000Z</time>
      </trkpt>
      <trkpt lat="43.65725" lon="1.21562">
        <ele>196.80000305176</ele>
        <time>2013-04-27T07:43:04.000Z</time>
      </trkpt>
      <trkpt lat="43.65715" lon="1.21577">
        <ele>197.19999694824</ele>
        <time>2013-04-27T07:43:10.000Z</time>
      </trkpt>
      <trkpt lat="43.65708" lon="1.21588">
        <ele>197.39999389648</ele>
        <time>2013-04-27T07:43:15.000Z</time>
      </trkpt>
      <trkpt lat="43.65698" lon="1.21603">
        <ele>197.80000305176</ele>
        <time>2013-04-27T07:43:21.000Z</time>
      </trkpt>
      <trkpt lat="43.65692" lon="1.2162">
        <ele>198.19999694824</ele>
        <time>2013-04-27T07:43:26.000Z</time>
      </trkpt>
      <trkpt lat="43.65692" lon="1.21622">
        <ele>198.19999694824</ele>
        <time>2013-04-27T07:43:27.000Z</time>
      </trkpt>
      <trkpt lat="43.65695" lon="1.21642">
        <ele>198.60000610352</ele>
        <time>2013-04-27T07:43:32.000Z</time>
      </trkpt>
      <trkpt lat="43.65699" lon="1.21666">
        <ele>198.80000305176</ele>
        <time>2013-04-27T07:43:39.000Z</time>
      </trkpt>
      <trkpt lat="43.65704" lon="1.21683">
        <ele>199</ele>
        <time>2013-04-27T07:43:44.000Z</time>
      </trkpt>
      <trkpt lat="43.6571" lon="1.21703">
        <ele>199</ele>
        <time>2013-04-27T07:43:50.000Z</time>
      </trkpt>
      <trkpt lat="43.65711" lon="1.21723">
        <ele>199</ele>
        <time>2013-04-27T07:43:55.000Z</time>
      </trkpt>
      <trkpt lat="43.65708" lon="1.21739">
        <ele>199</ele>
        <time>2013-04-27T07:43:59.000Z</time>
      </trkpt>
      <trkpt lat="43.65705" lon="1.21754">
        <ele>199</ele>
        <time>2013-04-27T07:44:03.000Z</time>
      </trkpt>
      <trkpt lat="43.65702" lon="1.21777">
        <ele>199</ele>
        <time>2013-04-27T07:44:09.000Z</time>
      </trkpt>
      <trkpt lat="43.65698" lon="1.21798">
        <ele>199.19999694824</ele>
        <time>2013-04-27T07:44:14.000Z</time>
      </trkpt>
      <trkpt lat="43.65697" lon="1.2182">
        <ele>199.39999389648</ele>
        <time>2013-04-27T07:44:20.000Z</time>
      </trkpt>
      <trkpt lat="43.65695" lon="1.21841">
        <ele>199.60000610352</ele>
        <time>2013-04-27T07:44:25.000Z</time>
      </trkpt>
      <trkpt lat="43.65694" lon="1.2186">
        <ele>199.39999389648</ele>
        <time>2013-04-27T07:44:30.000Z</time>
      </trkpt>
      <trkpt lat="43.65694" lon="1.21883">
        <ele>199.39999389648</ele>
        <time>2013-04-27T07:44:36.000Z</time>
      </trkpt>
      <trkpt lat="43.65693" lon="1.21902">
        <ele>199.39999389648</ele>
        <time>2013-04-27T07:44:41.000Z</time>
      </trkpt>
      <trkpt lat="43.65693" lon="1.21921">
        <ele>199.19999694824</ele>
        <time>2013-04-27T07:44:46.000Z</time>
      </trkpt>
      <trkpt lat="43.65692" lon="1.2194">
        <ele>198.80000305176</ele>
        <time>2013-04-27T07:44:51.000Z</time>
      </trkpt>
      <trkpt lat="43.65692" lon="1.21963">
        <ele>198.39999389648</ele>
        <time>2013-04-27T07:44:57.000Z</time>
      </trkpt>
      <trkpt lat="43.65693" lon="1.21983">
        <ele>198</ele>
        <time>2013-04-27T07:45:02.000Z</time>
      </trkpt>
      <trkpt lat="43.65694" lon="1.22002">
        <ele>197.60000610352</ele>
        <time>2013-04-27T07:45:07.000Z</time>
      </trkpt>
      <trkpt lat="43.65696" lon="1.22021">
        <ele>197.19999694824</ele>
        <time>2013-04-27T07:45:12.000Z</time>
      </trkpt>
      <trkpt lat="43.657" lon="1.22043">
        <ele>196.80000305176</ele>
        <time>2013-04-27T07:45:18.000Z</time>
      </trkpt>
      <trkpt lat="43.65703" lon="1.22062">
        <ele>196.60000610352</ele>
        <time>2013-04-27T07:45:23.000Z</time>
      </trkpt>
      <trkpt lat="43.65704" lon="1.22073">
        <ele>196.39999389648</ele>
        <time>2013-04-27T07:45:26.000Z</time>
      </trkpt>
      <trkpt lat="43.65706" lon="1.221">
        <ele>195.80000305176</ele>
        <time>2013-04-27T07:45:33.000Z</time>
      </trkpt>
      <trkpt lat="43.65707" lon="1.22115">
        <ele>195.60000610352</ele>
        <time>2013-04-27T07:45:37.000Z</time>
      </trkpt>
      <trkpt lat="43.65711" lon="1.22136">
        <ele>195.19999694824</ele>
        <time>2013-04-27T07:45:42.000Z</time>
      </trkpt>
      <trkpt lat="43.65717" lon="1.22147">
        <ele>195.39999389648</ele>
        <time>2013-04-27T07:45:46.000Z</time>
      </trkpt>
      <trkpt lat="43.65725" lon="1.22163">
        <ele>195.39999389648</ele>
        <time>2013-04-27T07:45:51.000Z</time>
      </trkpt>
      <trkpt lat="43.65732" lon="1.2218">
        <ele>195.60000610352</ele>
        <time>2013-04-27T07:45:56.000Z</time>
      </trkpt>
      <trkpt lat="43.65738" lon="1.22193">
        <ele>195.60000610352</ele>
        <time>2013-04-27T07:46:00.000Z</time>
      </trkpt>
      <trkpt lat="43.65747" lon="1.22214">
        <ele>195.60000610352</ele>
        <time>2013-04-27T07:46:07.000Z</time>
      </trkpt>
      <trkpt lat="43.65749" lon="1.22215">
        <ele>195.80000305176</ele>
        <time>2013-04-27T07:46:08.000Z</time>
      </trkpt>
      <trkpt lat="43.65759" lon="1.22217">
        <ele>195.80000305176</ele>
        <time>2013-04-27T07:46:13.000Z</time>
      </trkpt>
      <trkpt lat="43.65761" lon="1.22218">
        <ele>195.80000305176</ele>
        <time>2013-04-27T07:46:14.000Z</time>
      </trkpt>
      <trkpt lat="43.65774" lon="1.22219">
        <ele>196.19999694824</ele>
        <time>2013-04-27T07:46:19.000Z</time>
      </trkpt>
      <trkpt lat="43.65787" lon="1.22222">
        <ele>196.39999389648</ele>
        <time>2013-04-27T07:46:24.000Z</time>
      </trkpt>
      <trkpt lat="43.65798" lon="1.22224">
        <ele>196.60000610352</ele>
        <time>2013-04-27T07:46:28.000Z</time>
      </trkpt>
      <trkpt lat="43.6581" lon="1.22224">
        <ele>196.80000305176</ele>
        <time>2013-04-27T07:46:33.000Z</time>
      </trkpt>
      <trkpt lat="43.65813" lon="1.22225">
        <ele>196.80000305176</ele>
        <time>2013-04-27T07:46:34.000Z</time>
      </trkpt>
      <trkpt lat="43.65831" lon="1.22225">
        <ele>197.19999694824</ele>
        <time>2013-04-27T07:46:40.000Z</time>
      </trkpt>
      <trkpt lat="43.65847" lon="1.22224">
        <ele>197.19999694824</ele>
        <time>2013-04-27T07:46:47.000Z</time>
      </trkpt>
      <trkpt lat="43.65854" lon="1.22225">
        <ele>197.19999694824</ele>
        <time>2013-04-27T07:46:50.000Z</time>
      </trkpt>
      <trkpt lat="43.65868" lon="1.22224">
        <ele>197</ele>
        <time>2013-04-27T07:46:56.000Z</time>
      </trkpt>
      <trkpt lat="43.6588" lon="1.22227">
        <ele>197</ele>
        <time>2013-04-27T07:47:01.000Z</time>
      </trkpt>
      <trkpt lat="43.65899" lon="1.22231">
        <ele>197</ele>
        <time>2013-04-27T07:47:08.000Z</time>
      </trkpt>
      <trkpt lat="43.65911" lon="1.22233">
        <ele>197</ele>
        <time>2013-04-27T07:47:13.000Z</time>
      </trkpt>
      <trkpt lat="43.65919" lon="1.22242">
        <ele>196.80000305176</ele>
        <time>2013-04-27T07:47:17.000Z</time>
      </trkpt>
      <trkpt lat="43.65921" lon="1.22245">
        <ele>196.80000305176</ele>
        <time>2013-04-27T07:47:18.000Z</time>
      </trkpt>
      <trkpt lat="43.65931" lon="1.22262">
        <ele>196.39999389648</ele>
        <time>2013-04-27T07:47:24.000Z</time>
      </trkpt>
      <trkpt lat="43.65933" lon="1.22265">
        <ele>196.39999389648</ele>
        <time>2013-04-27T07:47:25.000Z</time>
      </trkpt>
      <trkpt lat="43.65945" lon="1.22289">
        <ele>196</ele>
        <time>2013-04-27T07:47:33.000Z</time>
      </trkpt>
      <trkpt lat="43.65952" lon="1.223">
        <ele>195.80000305176</ele>
        <time>2013-04-27T07:47:37.000Z</time>
      </trkpt>
      <trkpt lat="43.65964" lon="1.22314">
        <ele>195.39999389648</ele>
        <time>2013-04-27T07:47:42.000Z</time>
      </trkpt>
      <trkpt lat="43.65972" lon="1.22316">
        <ele>195.19999694824</ele>
        <time>2013-04-27T07:47:45.000Z</time>
      </trkpt>
      <trkpt lat="43.65986" lon="1.22323">
        <ele>195</ele>
        <time>2013-04-27T07:47:50.000Z</time>
      </trkpt>
      <trkpt lat="43.65988" lon="1.22324">
        <ele>195</ele>
        <time>2013-04-27T07:47:51.000Z</time>
      </trkpt>
      <trkpt lat="43.66" lon="1.2233">
        <ele>195</ele>
        <time>2013-04-27T07:47:55.000Z</time>
      </trkpt>
      <trkpt lat="43.66009" lon="1.22334">
        <ele>194</ele>
        <time>2013-04-27T07:47:59.000Z</time>
      </trkpt>
      <trkpt lat="43.66021" lon="1.22338">
        <ele>192.80000305176</ele>
        <time>2013-04-27T07:48:04.000Z</time>
      </trkpt>
      <trkpt lat="43.66033" lon="1.22344">
        <ele>191.60000610352</ele>
        <time>2013-04-27T07:48:09.000Z</time>
      </trkpt>
      <trkpt lat="43.66045" lon="1.22346">
        <ele>190.39999389648</ele>
        <time>2013-04-27T07:48:14.000Z</time>
      </trkpt>
      <trkpt lat="43.66051" lon="1.22347">
        <ele>189.80000305176</ele>
        <time>2013-04-27T07:48:16.000Z</time>
      </trkpt>
      <trkpt lat="43.66058" lon="1.2235">
        <ele>189.19999694824</ele>
        <time>2013-04-27T07:48:19.000Z</time>
      </trkpt>
      <trkpt lat="43.66069" lon="1.22342">
        <ele>188.39999389648</ele>
        <time>2013-04-27T07:48:24.000Z</time>
      </trkpt>
      <trkpt lat="43.66078" lon="1.22332">
        <ele>187.39999389648</ele>
        <time>2013-04-27T07:48:29.000Z</time>
      </trkpt>
      <trkpt lat="43.6609" lon="1.22325">
        <ele>187.39999389648</ele>
        <time>2013-04-27T07:48:34.000Z</time>
      </trkpt>
      <trkpt lat="43.66105" lon="1.22319">
        <ele>187.80000305176</ele>
        <time>2013-04-27T07:48:40.000Z</time>
      </trkpt>
      <trkpt lat="43.66118" lon="1.22311">
        <ele>188.19999694824</ele>
        <time>2013-04-27T07:48:45.000Z</time>
      </trkpt>
      <trkpt lat="43.66127" lon="1.22306">
        <ele>188.60000610352</ele>
        <time>2013-04-27T07:48:49.000Z</time>
      </trkpt>
      <trkpt lat="43.66138" lon="1.22301">
        <ele>188.80000305176</ele>
        <time>2013-04-27T07:48:53.000Z</time>
      </trkpt>
      <trkpt lat="43.66151" lon="1.22292">
        <ele>189.39999389648</ele>
        <time>2013-04-27T07:48:58.000Z</time>
      </trkpt>
      <trkpt lat="43.66153" lon="1.22291">
        <ele>189.39999389648</ele>
        <time>2013-04-27T07:48:59.000Z</time>
      </trkpt>
      <trkpt lat="43.66169" lon="1.22278">
        <ele>190.19999694824</ele>
        <time>2013-04-27T07:49:06.000Z</time>
      </trkpt>
      <trkpt lat="43.66179" lon="1.22272">
        <ele>190.39999389648</ele>
        <time>2013-04-27T07:49:10.000Z</time>
      </trkpt>
      <trkpt lat="43.66191" lon="1.22266">
        <ele>190.39999389648</ele>
        <time>2013-04-27T07:49:15.000Z</time>
      </trkpt>
      <trkpt lat="43.66206" lon="1.22257">
        <ele>190.60000610352</ele>
        <time>2013-04-27T07:49:21.000Z</time>
      </trkpt>
      <trkpt lat="43.66222" lon="1.2225">
        <ele>190.60000610352</ele>
        <time>2013-04-27T07:49:27.000Z</time>
      </trkpt>
      <trkpt lat="43.66239" lon="1.2224">
        <ele>190.80000305176</ele>
        <time>2013-04-27T07:49:34.000Z</time>
      </trkpt>
      <trkpt lat="43.66251" lon="1.22232">
        <ele>191</ele>
        <time>2013-04-27T07:49:39.000Z</time>
      </trkpt>
      <trkpt lat="43.66254" lon="1.22232">
        <ele>190.80000305176</ele>
        <time>2013-04-27T07:49:40.000Z</time>
      </trkpt>
      <trkpt lat="43.66266" lon="1.22228">
        <ele>190.39999389648</ele>
        <time>2013-04-27T07:49:45.000Z</time>
      </trkpt>
      <trkpt lat="43.66281" lon="1.22226">
        <ele>189.80000305176</ele>
        <time>2013-04-27T07:49:51.000Z</time>
      </trkpt>
      <trkpt lat="43.66292" lon="1.22225">
        <ele>189.60000610352</ele>
        <time>2013-04-27T07:49:55.000Z</time>
      </trkpt>
      <trkpt lat="43.66303" lon="1.22237">
        <ele>187.80000305176</ele>
        <time>2013-04-27T07:50:00.000Z</time>
      </trkpt>
      <trkpt lat="43.66304" lon="1.22244">
        <ele>187.19999694824</ele>
        <time>2013-04-27T07:50:02.000Z</time>
      </trkpt>
      <trkpt lat="43.66304" lon="1.2225">
        <ele>186.60000610352</ele>
        <time>2013-04-27T07:50:04.000Z</time>
      </trkpt>
      <trkpt lat="43.66304" lon="1.22268">
        <ele>185.80000305176</ele>
        <time>2013-04-27T07:50:09.000Z</time>
      </trkpt>
      <trkpt lat="43.66306" lon="1.22273">
        <ele>185.39999389648</ele>
        <time>2013-04-27T07:50:11.000Z</time>
      </trkpt>
      <trkpt lat="43.66318" lon="1.22283">
        <ele>184.19999694824</ele>
        <time>2013-04-27T07:50:16.000Z</time>
      </trkpt>
      <trkpt lat="43.66327" lon="1.22295">
        <ele>183</ele>
        <time>2013-04-27T07:50:21.000Z</time>
      </trkpt>
      <trkpt lat="43.66332" lon="1.22299">
        <ele>182.60000610352</ele>
        <time>2013-04-27T07:50:23.000Z</time>
      </trkpt>
      <trkpt lat="43.66335" lon="1.22309">
        <ele>182</ele>
        <time>2013-04-27T07:50:27.000Z</time>
      </trkpt>
      <trkpt lat="43.66341" lon="1.22318">
        <ele>181.60000610352</ele>
        <time>2013-04-27T07:50:30.000Z</time>
      </trkpt>
      <trkpt lat="43.66358" lon="1.22318">
        <ele>181.19999694824</ele>
        <time>2013-04-27T07:50:36.000Z</time>
      </trkpt>
      <trkpt lat="43.66364" lon="1.22318">
        <ele>181.19999694824</ele>
        <time>2013-04-27T07:50:39.000Z</time>
      </trkpt>
      <trkpt lat="43.66371" lon="1.2232">
        <ele>181</ele>
        <time>2013-04-27T07:50:42.000Z</time>
      </trkpt>
      <trkpt lat="43.66378" lon="1.22325">
        <ele>180.60000610352</ele>
        <time>2013-04-27T07:50:46.000Z</time>
      </trkpt>
      <trkpt lat="43.66389" lon="1.22319">
        <ele>180.60000610352</ele>
        <time>2013-04-27T07:50:51.000Z</time>
      </trkpt>
      <trkpt lat="43.6639" lon="1.22316">
        <ele>180.80000305176</ele>
        <time>2013-04-27T07:50:52.000Z</time>
      </trkpt>
      <trkpt lat="43.66395" lon="1.22304">
        <ele>181</ele>
        <time>2013-04-27T07:50:56.000Z</time>
      </trkpt>
      <trkpt lat="43.66396" lon="1.22302">
        <ele>181</ele>
        <time>2013-04-27T07:50:57.000Z</time>
      </trkpt>
      <trkpt lat="43.66391" lon="1.22292">
        <ele>181.39999389648</ele>
        <time>2013-04-27T07:51:02.000Z</time>
      </trkpt>
      <trkpt lat="43.66391" lon="1.2229">
        <ele>181.60000610352</ele>
        <time>2013-04-27T07:51:03.000Z</time>
      </trkpt>
      <trkpt lat="43.6639" lon="1.22285">
        <ele>181.80000305176</ele>
        <time>2013-04-27T07:51:05.000Z</time>
      </trkpt>
      <trkpt lat="43.66388" lon="1.22282">
        <ele>181.80000305176</ele>
        <time>2013-04-27T07:51:06.000Z</time>
      </trkpt>
      <trkpt lat="43.66382" lon="1.22278">
        <ele>182.19999694824</ele>
        <time>2013-04-27T07:51:11.000Z</time>
      </trkpt>
      <trkpt lat="43.66373" lon="1.22271">
        <ele>182.80000305176</ele>
        <time>2013-04-27T07:51:15.000Z</time>
      </trkpt>
      <trkpt lat="43.66378" lon="1.22262">
        <ele>182.80000305176</ele>
        <time>2013-04-27T07:51:20.000Z</time>
      </trkpt>
      <trkpt lat="43.66387" lon="1.22254">
        <ele>182.80000305176</ele>
        <time>2013-04-27T07:51:25.000Z</time>
      </trkpt>
      <trkpt lat="43.6639" lon="1.22243">
        <ele>183.80000305176</ele>
        <time>2013-04-27T07:51:29.000Z</time>
      </trkpt>
      <trkpt lat="43.66392" lon="1.2224">
        <ele>184.19999694824</ele>
        <time>2013-04-27T07:51:31.000Z</time>
      </trkpt>
      <trkpt lat="43.66406" lon="1.22231">
        <ele>185</ele>
        <time>2013-04-27T07:51:37.000Z</time>
      </trkpt>
      <trkpt lat="43.6642" lon="1.22225">
        <ele>185.19999694824</ele>
        <time>2013-04-27T07:51:43.000Z</time>
      </trkpt>
      <trkpt lat="43.66434" lon="1.22221">
        <ele>185.19999694824</ele>
        <time>2013-04-27T07:51:48.000Z</time>
      </trkpt>
      <trkpt lat="43.66448" lon="1.22216">
        <ele>185</ele>
        <time>2013-04-27T07:51:53.000Z</time>
      </trkpt>
      <trkpt lat="43.66464" lon="1.22213">
        <ele>184.39999389648</ele>
        <time>2013-04-27T07:51:59.000Z</time>
      </trkpt>
      <trkpt lat="43.66476" lon="1.22212">
        <ele>183.80000305176</ele>
        <time>2013-04-27T07:52:03.000Z</time>
      </trkpt>
      <trkpt lat="43.66492" lon="1.22211">
        <ele>183.19999694824</ele>
        <time>2013-04-27T07:52:09.000Z</time>
      </trkpt>
      <trkpt lat="43.66506" lon="1.2221">
        <ele>182.80000305176</ele>
        <time>2013-04-27T07:52:14.000Z</time>
      </trkpt>
      <trkpt lat="43.66519" lon="1.22208">
        <ele>182.80000305176</ele>
        <time>2013-04-27T07:52:19.000Z</time>
      </trkpt>
      <trkpt lat="43.66532" lon="1.22208">
        <ele>182.80000305176</ele>
        <time>2013-04-27T07:52:24.000Z</time>
      </trkpt>
      <trkpt lat="43.66536" lon="1.22209">
        <ele>182.80000305176</ele>
        <time>2013-04-27T07:52:26.000Z</time>
      </trkpt>
      <trkpt lat="43.66542" lon="1.22208">
        <ele>182.80000305176</ele>
        <time>2013-04-27T07:52:28.000Z</time>
      </trkpt>
      <trkpt lat="43.66553" lon="1.22209">
        <ele>182.80000305176</ele>
        <time>2013-04-27T07:52:32.000Z</time>
      </trkpt>
      <trkpt lat="43.66569" lon="1.22212">
        <ele>182.60000610352</ele>
        <time>2013-04-27T07:52:38.000Z</time>
      </trkpt>
      <trkpt lat="43.6657" lon="1.22213">
        <ele>182.39999389648</ele>
        <time>2013-04-27T07:52:39.000Z</time>
      </trkpt>
      <trkpt lat="43.66582" lon="1.22215">
        <ele>182.19999694824</ele>
        <time>2013-04-27T07:52:44.000Z</time>
      </trkpt>
      <trkpt lat="43.66598" lon="1.22219">
        <ele>182.19999694824</ele>
        <time>2013-04-27T07:52:49.000Z</time>
      </trkpt>
      <trkpt lat="43.66612" lon="1.22224">
        <ele>182.19999694824</ele>
        <time>2013-04-27T07:52:54.000Z</time>
      </trkpt>
      <trkpt lat="43.66625" lon="1.22229">
        <ele>182</ele>
        <time>2013-04-27T07:52:59.000Z</time>
      </trkpt>
      <trkpt lat="43.66638" lon="1.22234">
        <ele>182</ele>
        <time>2013-04-27T07:53:04.000Z</time>
      </trkpt>
      <trkpt lat="43.66643" lon="1.22237">
        <ele>182</ele>
        <time>2013-04-27T07:53:07.000Z</time>
      </trkpt>
      <trkpt lat="43.66651" lon="1.22245">
        <ele>181.60000610352</ele>
        <time>2013-04-27T07:53:11.000Z</time>
      </trkpt>
      <trkpt lat="43.66654" lon="1.22251">
        <ele>181.39999389648</ele>
        <time>2013-04-27T07:53:13.000Z</time>
      </trkpt>
      <trkpt lat="43.66661" lon="1.2226">
        <ele>181.19999694824</ele>
        <time>2013-04-27T07:53:17.000Z</time>
      </trkpt>
      <trkpt lat="43.66662" lon="1.22264">
        <ele>181.19999694824</ele>
        <time>2013-04-27T07:53:18.000Z</time>
      </trkpt>
      <trkpt lat="43.66671" lon="1.22278">
        <ele>180.60000610352</ele>
        <time>2013-04-27T07:53:23.000Z</time>
      </trkpt>
      <trkpt lat="43.66679" lon="1.22292">
        <ele>179.80000305176</ele>
        <time>2013-04-27T07:53:27.000Z</time>
      </trkpt>
      <trkpt lat="43.66688" lon="1.22298">
        <ele>179.39999389648</ele>
        <time>2013-04-27T07:53:30.000Z</time>
      </trkpt>
      <trkpt lat="43.66688" lon="1.22312">
        <ele>178.60000610352</ele>
        <time>2013-04-27T07:53:34.000Z</time>
      </trkpt>
      <trkpt lat="43.66684" lon="1.22327">
        <ele>177.80000305176</ele>
        <time>2013-04-27T07:53:38.000Z</time>
      </trkpt>
      <trkpt lat="43.66687" lon="1.22342">
        <ele>177.60000610352</ele>
        <time>2013-04-27T07:53:42.000Z</time>
      </trkpt>
      <trkpt lat="43.66694" lon="1.22351">
        <ele>177.39999389648</ele>
        <time>2013-04-27T07:53:45.000Z</time>
      </trkpt>
      <trkpt lat="43.66696" lon="1.22358">
        <ele>177.39999389648</ele>
        <time>2013-04-27T07:53:47.000Z</time>
      </trkpt>
      <trkpt lat="43.66703" lon="1.22365">
        <ele>177</ele>
        <time>2013-04-27T07:53:51.000Z</time>
      </trkpt>
      <trkpt lat="43.66713" lon="1.2237">
        <ele>176.39999389648</ele>
        <time>2013-04-27T07:53:55.000Z</time>
      </trkpt>
      <trkpt lat="43.66725" lon="1.22379">
        <ele>175.39999389648</ele>
        <time>2013-04-27T07:54:00.000Z</time>
      </trkpt>
      <trkpt lat="43.66728" lon="1.22384">
        <ele>175.19999694824</ele>
        <time>2013-04-27T07:54:02.000Z</time>
      </trkpt>
      <trkpt lat="43.66731" lon="1.22389">
        <ele>174.80000305176</ele>
        <time>2013-04-27T07:54:04.000Z</time>
      </trkpt>
      <trkpt lat="43.66735" lon="1.22392">
        <ele>174.19999694824</ele>
        <time>2013-04-27T07:54:06.000Z</time>
      </trkpt>
      <trkpt lat="43.6675" lon="1.224">
        <ele>172.80000305176</ele>
        <time>2013-04-27T07:54:12.000Z</time>
      </trkpt>
      <trkpt lat="43.66755" lon="1.22405">
        <ele>172.39999389648</ele>
        <time>2013-04-27T07:54:15.000Z</time>
      </trkpt>
      <trkpt lat="43.66763" lon="1.22404">
        <ele>172.19999694824</ele>
        <time>2013-04-27T07:54:19.000Z</time>
      </trkpt>
      <trkpt lat="43.66768" lon="1.22412">
        <ele>171.80000305176</ele>
        <time>2013-04-27T07:54:22.000Z</time>
      </trkpt>
      <trkpt lat="43.66771" lon="1.22426">
        <ele>172.39999389648</ele>
        <time>2013-04-27T07:54:26.000Z</time>
      </trkpt>
      <trkpt lat="43.66772" lon="1.2243">
        <ele>172.80000305176</ele>
        <time>2013-04-27T07:54:27.000Z</time>
      </trkpt>
      <trkpt lat="43.66773" lon="1.22441">
        <ele>174</ele>
        <time>2013-04-27T07:54:30.000Z</time>
      </trkpt>
      <trkpt lat="43.66763" lon="1.2245">
        <ele>175.19999694824</ele>
        <time>2013-04-27T07:54:36.000Z</time>
      </trkpt>
      <trkpt lat="43.66754" lon="1.22458">
        <ele>176.39999389648</ele>
        <time>2013-04-27T07:54:42.000Z</time>
      </trkpt>
      <trkpt lat="43.66743" lon="1.22463">
        <ele>177.60000610352</ele>
        <time>2013-04-27T07:54:47.000Z</time>
      </trkpt>
      <trkpt lat="43.66741" lon="1.22464">
        <ele>177.80000305176</ele>
        <time>2013-04-27T07:54:48.000Z</time>
      </trkpt>
      <trkpt lat="43.66731" lon="1.22466">
        <ele>179</ele>
        <time>2013-04-27T07:54:53.000Z</time>
      </trkpt>
      <trkpt lat="43.66729" lon="1.22465">
        <ele>179</ele>
        <time>2013-04-27T07:54:54.000Z</time>
      </trkpt>
      <trkpt lat="43.66718" lon="1.22459">
        <ele>179.39999389648</ele>
        <time>2013-04-27T07:55:00.000Z</time>
      </trkpt>
      <trkpt lat="43.66714" lon="1.22448">
        <ele>178.60000610352</ele>
        <time>2013-04-27T07:55:04.000Z</time>
      </trkpt>
      <trkpt lat="43.66702" lon="1.22444">
        <ele>179.39999389648</ele>
        <time>2013-04-27T07:55:08.000Z</time>
      </trkpt>
      <trkpt lat="43.667" lon="1.22444">
        <ele>179.60000610352</ele>
        <time>2013-04-27T07:55:09.000Z</time>
      </trkpt>
      <trkpt lat="43.6669" lon="1.2243">
        <ele>179.60000610352</ele>
        <time>2013-04-27T07:55:15.000Z</time>
      </trkpt>
      <trkpt lat="43.66687" lon="1.22429">
        <ele>179.60000610352</ele>
        <time>2013-04-27T07:55:16.000Z</time>
      </trkpt>
      <trkpt lat="43.66679" lon="1.22426">
        <ele>180.19999694824</ele>
        <time>2013-04-27T07:55:20.000Z</time>
      </trkpt>
      <trkpt lat="43.66674" lon="1.22428">
        <ele>181</ele>
        <time>2013-04-27T07:55:22.000Z</time>
      </trkpt>
      <trkpt lat="43.6667" lon="1.22429">
        <ele>181.39999389648</ele>
        <time>2013-04-27T07:55:24.000Z</time>
      </trkpt>
      <trkpt lat="43.66645" lon="1.22413">
        <ele>182.80000305176</ele>
        <time>2013-04-27T07:55:36.000Z</time>
      </trkpt>
      <trkpt lat="43.66639" lon="1.22409">
        <ele>183.19999694824</ele>
        <time>2013-04-27T07:55:39.000Z</time>
      </trkpt>
      <trkpt lat="43.66629" lon="1.2239">
        <ele>183.19999694824</ele>
        <time>2013-04-27T07:55:45.000Z</time>
      </trkpt>
      <trkpt lat="43.66623" lon="1.22379">
        <ele>183.19999694824</ele>
        <time>2013-04-27T07:55:49.000Z</time>
      </trkpt>
      <trkpt lat="43.66621" lon="1.22378">
        <ele>183.39999389648</ele>
        <time>2013-04-27T07:55:50.000Z</time>
      </trkpt>
      <trkpt lat="43.66609" lon="1.22372">
        <ele>184.19999694824</ele>
        <time>2013-04-27T07:55:55.000Z</time>
      </trkpt>
      <trkpt lat="43.66606" lon="1.22372">
        <ele>184.19999694824</ele>
        <time>2013-04-27T07:55:56.000Z</time>
      </trkpt>
      <trkpt lat="43.66597" lon="1.22367">
        <ele>184.80000305176</ele>
        <time>2013-04-27T07:56:00.000Z</time>
      </trkpt>
      <trkpt lat="43.66588" lon="1.2236">
        <ele>185.19999694824</ele>
        <time>2013-04-27T07:56:04.000Z</time>
      </trkpt>
      <trkpt lat="43.66569" lon="1.22353">
        <ele>185.19999694824</ele>
        <time>2013-04-27T07:56:11.000Z</time>
      </trkpt>
      <trkpt lat="43.66553" lon="1.22351">
        <ele>185.39999389648</ele>
        <time>2013-04-27T07:56:17.000Z</time>
      </trkpt>
      <trkpt lat="43.6654" lon="1.22355">
        <ele>185.80000305176</ele>
        <time>2013-04-27T07:56:22.000Z</time>
      </trkpt>
      <trkpt lat="43.66526" lon="1.22358">
        <ele>186</ele>
        <time>2013-04-27T07:56:27.000Z</time>
      </trkpt>
      <trkpt lat="43.66503" lon="1.22372">
        <ele>187.19999694824</ele>
        <time>2013-04-27T07:56:35.000Z</time>
      </trkpt>
      <trkpt lat="43.66496" lon="1.22376">
        <ele>187.39999389648</ele>
        <time>2013-04-27T07:56:38.000Z</time>
      </trkpt>
      <trkpt lat="43.66487" lon="1.22381">
        <ele>187.60000610352</ele>
        <time>2013-04-27T07:56:42.000Z</time>
      </trkpt>
      <trkpt lat="43.66474" lon="1.2239">
        <ele>188</ele>
        <time>2013-04-27T07:56:47.000Z</time>
      </trkpt>
      <trkpt lat="43.66472" lon="1.22391">
        <ele>188.19999694824</ele>
        <time>2013-04-27T07:56:48.000Z</time>
      </trkpt>
      <trkpt lat="43.66456" lon="1.22398">
        <ele>188.60000610352</ele>
        <time>2013-04-27T07:56:54.000Z</time>
      </trkpt>
      <trkpt lat="43.66442" lon="1.224">
        <ele>188.80000305176</ele>
        <time>2013-04-27T07:56:59.000Z</time>
      </trkpt>
      <trkpt lat="43.66431" lon="1.22406">
        <ele>189.39999389648</ele>
        <time>2013-04-27T07:57:03.000Z</time>
      </trkpt>
      <trkpt lat="43.66418" lon="1.22411">
        <ele>190.19999694824</ele>
        <time>2013-04-27T07:57:08.000Z</time>
      </trkpt>
      <trkpt lat="43.66416" lon="1.22413">
        <ele>190.39999389648</ele>
        <time>2013-04-27T07:57:09.000Z</time>
      </trkpt>
      <trkpt lat="43.66419" lon="1.22424">
        <ele>191</ele>
        <time>2013-04-27T07:57:14.000Z</time>
      </trkpt>
      <trkpt lat="43.66416" lon="1.22433">
        <ele>191.19999694824</ele>
        <time>2013-04-27T07:57:17.000Z</time>
      </trkpt>
      <trkpt lat="43.66413" lon="1.22434">
        <ele>191.39999389648</ele>
        <time>2013-04-27T07:57:18.000Z</time>
      </trkpt>
      <trkpt lat="43.66408" lon="1.22435">
        <ele>191.39999389648</ele>
        <time>2013-04-27T07:57:20.000Z</time>
      </trkpt>
      <trkpt lat="43.66402" lon="1.22447">
        <ele>191.80000305176</ele>
        <time>2013-04-27T07:57:24.000Z</time>
      </trkpt>
      <trkpt lat="43.66394" lon="1.22461">
        <ele>192.39999389648</ele>
        <time>2013-04-27T07:57:29.000Z</time>
      </trkpt>
      <trkpt lat="43.66381" lon="1.22474">
        <ele>193</ele>
        <time>2013-04-27T07:57:35.000Z</time>
      </trkpt>
      <trkpt lat="43.66381" lon="1.22491">
        <ele>193.60000610352</ele>
        <time>2013-04-27T07:57:40.000Z</time>
      </trkpt>
      <trkpt lat="43.6638" lon="1.22494">
        <ele>193.60000610352</ele>
        <time>2013-04-27T07:57:41.000Z</time>
      </trkpt>
      <trkpt lat="43.6638" lon="1.22505">
        <ele>193.60000610352</ele>
        <time>2013-04-27T07:57:45.000Z</time>
      </trkpt>
      <trkpt lat="43.66387" lon="1.22514">
        <ele>193.19999694824</ele>
        <time>2013-04-27T07:57:48.000Z</time>
      </trkpt>
      <trkpt lat="43.66396" lon="1.22515">
        <ele>192.80000305176</ele>
        <time>2013-04-27T07:57:51.000Z</time>
      </trkpt>
      <trkpt lat="43.66399" lon="1.22515">
        <ele>192.80000305176</ele>
        <time>2013-04-27T07:57:52.000Z</time>
      </trkpt>
      <trkpt lat="43.66408" lon="1.22514">
        <ele>192.39999389648</ele>
        <time>2013-04-27T07:57:56.000Z</time>
      </trkpt>
      <trkpt lat="43.66417" lon="1.22514">
        <ele>192.19999694824</ele>
        <time>2013-04-27T07:58:01.000Z</time>
      </trkpt>
      <trkpt lat="43.66418" lon="1.22513">
        <ele>192.19999694824</ele>
        <time>2013-04-27T07:58:02.000Z</time>
      </trkpt>
      <trkpt lat="43.66421" lon="1.22522">
        <ele>191.60000610352</ele>
        <time>2013-04-27T07:58:08.000Z</time>
      </trkpt>
      <trkpt lat="43.66419" lon="1.22533">
        <ele>191.19999694824</ele>
        <time>2013-04-27T07:58:11.000Z</time>
      </trkpt>
      <trkpt lat="43.66413" lon="1.22557">
        <ele>190.39999389648</ele>
        <time>2013-04-27T07:58:17.000Z</time>
      </trkpt>
      <trkpt lat="43.66413" lon="1.22562">
        <ele>190.19999694824</ele>
        <time>2013-04-27T07:58:18.000Z</time>
      </trkpt>
      <trkpt lat="43.66412" lon="1.22588">
        <ele>189.19999694824</ele>
        <time>2013-04-27T07:58:24.000Z</time>
      </trkpt>
      <trkpt lat="43.66414" lon="1.22612">
        <ele>189</ele>
        <time>2013-04-27T07:58:30.000Z</time>
      </trkpt>
      <trkpt lat="43.66415" lon="1.22627">
        <ele>189</ele>
        <time>2013-04-27T07:58:34.000Z</time>
      </trkpt>
      <trkpt lat="43.66416" lon="1.22643">
        <ele>189</ele>
        <time>2013-04-27T07:58:38.000Z</time>
      </trkpt>
      <trkpt lat="43.66419" lon="1.22667">
        <ele>188.80000305176</ele>
        <time>2013-04-27T07:58:44.000Z</time>
      </trkpt>
      <trkpt lat="43.6642" lon="1.22688">
        <ele>190.19999694824</ele>
        <time>2013-04-27T07:58:49.000Z</time>
      </trkpt>
      <trkpt lat="43.66422" lon="1.22705">
        <ele>191</ele>
        <time>2013-04-27T07:58:54.000Z</time>
      </trkpt>
      <trkpt lat="43.66428" lon="1.22718">
        <ele>191.80000305176</ele>
        <time>2013-04-27T07:58:58.000Z</time>
      </trkpt>
      <trkpt lat="43.66434" lon="1.22725">
        <ele>192</ele>
        <time>2013-04-27T07:59:01.000Z</time>
      </trkpt>
      <trkpt lat="43.66433" lon="1.22742">
        <ele>193</ele>
        <time>2013-04-27T07:59:06.000Z</time>
      </trkpt>
      <trkpt lat="43.66433" lon="1.22746">
        <ele>193.19999694824</ele>
        <time>2013-04-27T07:59:07.000Z</time>
      </trkpt>
      <trkpt lat="43.66431" lon="1.22762">
        <ele>193.80000305176</ele>
        <time>2013-04-27T07:59:11.000Z</time>
      </trkpt>
      <trkpt lat="43.66435" lon="1.22781">
        <ele>194</ele>
        <time>2013-04-27T07:59:16.000Z</time>
      </trkpt>
      <trkpt lat="43.66435" lon="1.22784">
        <ele>194</ele>
        <time>2013-04-27T07:59:17.000Z</time>
      </trkpt>
      <trkpt lat="43.6643" lon="1.22802">
        <ele>194.39999389648</ele>
        <time>2013-04-27T07:59:22.000Z</time>
      </trkpt>
      <trkpt lat="43.6642" lon="1.22817">
        <ele>194.60000610352</ele>
        <time>2013-04-27T07:59:27.000Z</time>
      </trkpt>
      <trkpt lat="43.66418" lon="1.22822">
        <ele>194.80000305176</ele>
        <time>2013-04-27T07:59:29.000Z</time>
      </trkpt>
      <trkpt lat="43.66414" lon="1.22834">
        <ele>194.80000305176</ele>
        <time>2013-04-27T07:59:33.000Z</time>
      </trkpt>
      <trkpt lat="43.66415" lon="1.22848">
        <ele>195</ele>
        <time>2013-04-27T07:59:36.000Z</time>
      </trkpt>
      <trkpt lat="43.6641" lon="1.2286">
        <ele>195.19999694824</ele>
        <time>2013-04-27T07:59:40.000Z</time>
      </trkpt>
      <trkpt lat="43.66405" lon="1.2287">
        <ele>195.19999694824</ele>
        <time>2013-04-27T07:59:43.000Z</time>
      </trkpt>
      <trkpt lat="43.66403" lon="1.22874">
        <ele>195.39999389648</ele>
        <time>2013-04-27T07:59:44.000Z</time>
      </trkpt>
      <trkpt lat="43.66394" lon="1.22892">
        <ele>195.60000610352</ele>
        <time>2013-04-27T07:59:49.000Z</time>
      </trkpt>
      <trkpt lat="43.66394" lon="1.22895">
        <ele>195.60000610352</ele>
        <time>2013-04-27T07:59:50.000Z</time>
      </trkpt>
      <trkpt lat="43.6639" lon="1.22916">
        <ele>195.80000305176</ele>
        <time>2013-04-27T07:59:55.000Z</time>
      </trkpt>
      <trkpt lat="43.66386" lon="1.22931">
        <ele>195.60000610352</ele>
        <time>2013-04-27T07:59:59.000Z</time>
      </trkpt>
      <trkpt lat="43.66384" lon="1.22934">
        <ele>195.60000610352</ele>
        <time>2013-04-27T08:00:00.000Z</time>
      </trkpt>
      <trkpt lat="43.6638" lon="1.22943">
        <ele>195.39999389648</ele>
        <time>2013-04-27T08:00:03.000Z</time>
      </trkpt>
      <trkpt lat="43.66363" lon="1.22961">
        <ele>195</ele>
        <time>2013-04-27T08:00:10.000Z</time>
      </trkpt>
      <trkpt lat="43.66352" lon="1.22969">
        <ele>194.80000305176</ele>
        <time>2013-04-27T08:00:14.000Z</time>
      </trkpt>
      <trkpt lat="43.6634" lon="1.22973">
        <ele>194.60000610352</ele>
        <time>2013-04-27T08:00:18.000Z</time>
      </trkpt>
      <trkpt lat="43.66331" lon="1.22976">
        <ele>194.39999389648</ele>
        <time>2013-04-27T08:00:21.000Z</time>
      </trkpt>
      <trkpt lat="43.66315" lon="1.22977">
        <ele>194.39999389648</ele>
        <time>2013-04-27T08:00:27.000Z</time>
      </trkpt>
      <trkpt lat="43.66303" lon="1.22978">
        <ele>194.60000610352</ele>
        <time>2013-04-27T08:00:31.000Z</time>
      </trkpt>
      <trkpt lat="43.66286" lon="1.22966">
        <ele>194.60000610352</ele>
        <time>2013-04-27T08:00:37.000Z</time>
      </trkpt>
      <trkpt lat="43.66283" lon="1.22966">
        <ele>194.60000610352</ele>
        <time>2013-04-27T08:00:38.000Z</time>
      </trkpt>
      <trkpt lat="43.66262" lon="1.22962">
        <ele>194.39999389648</ele>
        <time>2013-04-27T08:00:45.000Z</time>
      </trkpt>
      <trkpt lat="43.66245" lon="1.22951">
        <ele>194.19999694824</ele>
        <time>2013-04-27T08:00:51.000Z</time>
      </trkpt>
      <trkpt lat="43.66241" lon="1.22946">
        <ele>194.19999694824</ele>
        <time>2013-04-27T08:00:53.000Z</time>
      </trkpt>
      <trkpt lat="43.6623" lon="1.22943">
        <ele>194.19999694824</ele>
        <time>2013-04-27T08:00:57.000Z</time>
      </trkpt>
      <trkpt lat="43.66212" lon="1.22944">
        <ele>194</ele>
        <time>2013-04-27T08:01:03.000Z</time>
      </trkpt>
      <trkpt lat="43.66199" lon="1.22949">
        <ele>194</ele>
        <time>2013-04-27T08:01:07.000Z</time>
      </trkpt>
      <trkpt lat="43.66191" lon="1.2296">
        <ele>194</ele>
        <time>2013-04-27T08:01:11.000Z</time>
      </trkpt>
      <trkpt lat="43.66189" lon="1.22963">
        <ele>194</ele>
        <time>2013-04-27T08:01:12.000Z</time>
      </trkpt>
      <trkpt lat="43.66174" lon="1.22977">
        <ele>194</ele>
        <time>2013-04-27T08:01:18.000Z</time>
      </trkpt>
      <trkpt lat="43.66173" lon="1.2298">
        <ele>194</ele>
        <time>2013-04-27T08:01:19.000Z</time>
      </trkpt>
      <trkpt lat="43.66172" lon="1.22983">
        <ele>194</ele>
        <time>2013-04-27T08:01:20.000Z</time>
      </trkpt>
      <trkpt lat="43.66158" lon="1.22987">
        <ele>194</ele>
        <time>2013-04-27T08:01:25.000Z</time>
      </trkpt>
      <trkpt lat="43.66142" lon="1.2299">
        <ele>194.19999694824</ele>
        <time>2013-04-27T08:01:31.000Z</time>
      </trkpt>
      <trkpt lat="43.66134" lon="1.22993">
        <ele>194.19999694824</ele>
        <time>2013-04-27T08:01:33.000Z</time>
      </trkpt>
      <trkpt lat="43.66132" lon="1.22994">
        <ele>194.39999389648</ele>
        <time>2013-04-27T08:01:34.000Z</time>
      </trkpt>
      <trkpt lat="43.66125" lon="1.22983">
        <ele>194.39999389648</ele>
        <time>2013-04-27T08:01:38.000Z</time>
      </trkpt>
      <trkpt lat="43.66125" lon="1.22972">
        <ele>194.39999389648</ele>
        <time>2013-04-27T08:01:41.000Z</time>
      </trkpt>
      <trkpt lat="43.66119" lon="1.22954">
        <ele>194.39999389648</ele>
        <time>2013-04-27T08:01:46.000Z</time>
      </trkpt>
      <trkpt lat="43.66109" lon="1.22938">
        <ele>194.60000610352</ele>
        <time>2013-04-27T08:01:51.000Z</time>
      </trkpt>
      <trkpt lat="43.66098" lon="1.22926">
        <ele>194.80000305176</ele>
        <time>2013-04-27T08:01:56.000Z</time>
      </trkpt>
      <trkpt lat="43.66089" lon="1.22911">
        <ele>194.80000305176</ele>
        <time>2013-04-27T08:02:01.000Z</time>
      </trkpt>
      <trkpt lat="43.66079" lon="1.22898">
        <ele>194.39999389648</ele>
        <time>2013-04-27T08:02:06.000Z</time>
      </trkpt>
      <trkpt lat="43.66067" lon="1.22887">
        <ele>194.39999389648</ele>
        <time>2013-04-27T08:02:11.000Z</time>
      </trkpt>
      <trkpt lat="43.66052" lon="1.22878">
        <ele>194.60000610352</ele>
        <time>2013-04-27T08:02:17.000Z</time>
      </trkpt>
      <trkpt lat="43.66048" lon="1.22878">
        <ele>194.60000610352</ele>
        <time>2013-04-27T08:02:18.000Z</time>
      </trkpt>
      <trkpt lat="43.6604" lon="1.22864">
        <ele>194.60000610352</ele>
        <time>2013-04-27T08:02:23.000Z</time>
      </trkpt>
      <trkpt lat="43.66037" lon="1.22854">
        <ele>194.60000610352</ele>
        <time>2013-04-27T08:02:26.000Z</time>
      </trkpt>
      <trkpt lat="43.66023" lon="1.22845">
        <ele>195</ele>
        <time>2013-04-27T08:02:31.000Z</time>
      </trkpt>
      <trkpt lat="43.66006" lon="1.22839">
        <ele>195.60000610352</ele>
        <time>2013-04-27T08:02:37.000Z</time>
      </trkpt>
      <trkpt lat="43.65998" lon="1.22837">
        <ele>195.80000305176</ele>
        <time>2013-04-27T08:02:40.000Z</time>
      </trkpt>
      <trkpt lat="43.65981" lon="1.2284">
        <ele>195.80000305176</ele>
        <time>2013-04-27T08:02:46.000Z</time>
      </trkpt>
      <trkpt lat="43.6597" lon="1.22844">
        <ele>195.80000305176</ele>
        <time>2013-04-27T08:02:50.000Z</time>
      </trkpt>
      <trkpt lat="43.65961" lon="1.22846">
        <ele>195.80000305176</ele>
        <time>2013-04-27T08:02:53.000Z</time>
      </trkpt>
      <trkpt lat="43.65944" lon="1.22848">
        <ele>195.80000305176</ele>
        <time>2013-04-27T08:02:59.000Z</time>
      </trkpt>
      <trkpt lat="43.65939" lon="1.22853">
        <ele>195.80000305176</ele>
        <time>2013-04-27T08:03:01.000Z</time>
      </trkpt>
      <trkpt lat="43.65925" lon="1.2285">
        <ele>195.80000305176</ele>
        <time>2013-04-27T08:03:06.000Z</time>
      </trkpt>
      <trkpt lat="43.65915" lon="1.22856">
        <ele>195.80000305176</ele>
        <time>2013-04-27T08:03:11.000Z</time>
      </trkpt>
      <trkpt lat="43.65907" lon="1.22856">
        <ele>195.60000610352</ele>
        <time>2013-04-27T08:03:13.000Z</time>
      </trkpt>
      <trkpt lat="43.65906" lon="1.22856">
        <ele>195.60000610352</ele>
        <time>2013-04-27T08:03:14.000Z</time>
      </trkpt>
      <trkpt lat="43.659" lon="1.22857">
        <ele>195.19999694824</ele>
        <time>2013-04-27T08:03:18.000Z</time>
      </trkpt>
      <trkpt lat="43.65897" lon="1.22857">
        <ele>195.19999694824</ele>
        <time>2013-04-27T08:03:19.000Z</time>
      </trkpt>
      <trkpt lat="43.65891" lon="1.22853">
        <ele>195</ele>
        <time>2013-04-27T08:03:22.000Z</time>
      </trkpt>
      <trkpt lat="43.65874" lon="1.22854">
        <ele>194.39999389648</ele>
        <time>2013-04-27T08:03:29.000Z</time>
      </trkpt>
      <trkpt lat="43.65869" lon="1.22858">
        <ele>194.19999694824</ele>
        <time>2013-04-27T08:03:31.000Z</time>
      </trkpt>
      <trkpt lat="43.65866" lon="1.22858">
        <ele>194</ele>
        <time>2013-04-27T08:03:32.000Z</time>
      </trkpt>
      <trkpt lat="43.65852" lon="1.22858">
        <ele>193.60000610352</ele>
        <time>2013-04-27T08:03:37.000Z</time>
      </trkpt>
      <trkpt lat="43.65846" lon="1.22859">
        <ele>193.39999389648</ele>
        <time>2013-04-27T08:03:39.000Z</time>
      </trkpt>
      <trkpt lat="43.65834" lon="1.22855">
        <ele>193</ele>
        <time>2013-04-27T08:03:44.000Z</time>
      </trkpt>
      <trkpt lat="43.65831" lon="1.22854">
        <ele>193</ele>
        <time>2013-04-27T08:03:45.000Z</time>
      </trkpt>
      <trkpt lat="43.65815" lon="1.22853">
        <ele>193.19999694824</ele>
        <time>2013-04-27T08:03:51.000Z</time>
      </trkpt>
      <trkpt lat="43.65804" lon="1.22856">
        <ele>193.39999389648</ele>
        <time>2013-04-27T08:03:54.000Z</time>
      </trkpt>
      <trkpt lat="43.6579" lon="1.22867">
        <ele>193.60000610352</ele>
        <time>2013-04-27T08:04:00.000Z</time>
      </trkpt>
      <trkpt lat="43.6578" lon="1.22875">
        <ele>193.80000305176</ele>
        <time>2013-04-27T08:04:04.000Z</time>
      </trkpt>
      <trkpt lat="43.65766" lon="1.22885">
        <ele>194.19999694824</ele>
        <time>2013-04-27T08:04:10.000Z</time>
      </trkpt>
      <trkpt lat="43.65764" lon="1.22885">
        <ele>194.19999694824</ele>
        <time>2013-04-27T08:04:11.000Z</time>
      </trkpt>
      <trkpt lat="43.65754" lon="1.22884">
        <ele>194.39999389648</ele>
        <time>2013-04-27T08:04:15.000Z</time>
      </trkpt>
      <trkpt lat="43.65745" lon="1.22885">
        <ele>194.39999389648</ele>
        <time>2013-04-27T08:04:19.000Z</time>
      </trkpt>
      <trkpt lat="43.65732" lon="1.22884">
        <ele>194.19999694824</ele>
        <time>2013-04-27T08:04:23.000Z</time>
      </trkpt>
      <trkpt lat="43.65721" lon="1.22893">
        <ele>194.39999389648</ele>
        <time>2013-04-27T08:04:27.000Z</time>
      </trkpt>
      <trkpt lat="43.65711" lon="1.22904">
        <ele>194.60000610352</ele>
        <time>2013-04-27T08:04:32.000Z</time>
      </trkpt>
      <trkpt lat="43.65693" lon="1.22917">
        <ele>194.80000305176</ele>
        <time>2013-04-27T08:04:38.000Z</time>
      </trkpt>
      <trkpt lat="43.65684" lon="1.22926">
        <ele>195</ele>
        <time>2013-04-27T08:04:42.000Z</time>
      </trkpt>
      <trkpt lat="43.65681" lon="1.22943">
        <ele>195</ele>
        <time>2013-04-27T08:04:47.000Z</time>
      </trkpt>
      <trkpt lat="43.65682" lon="1.22961">
        <ele>195</ele>
        <time>2013-04-27T08:04:52.000Z</time>
      </trkpt>
      <trkpt lat="43.65685" lon="1.22977">
        <ele>195</ele>
        <time>2013-04-27T08:04:56.000Z</time>
      </trkpt>
      <trkpt lat="43.65681" lon="1.22996">
        <ele>195</ele>
        <time>2013-04-27T08:05:01.000Z</time>
      </trkpt>
      <trkpt lat="43.65677" lon="1.23009">
        <ele>195.19999694824</ele>
        <time>2013-04-27T08:05:05.000Z</time>
      </trkpt>
      <trkpt lat="43.65676" lon="1.23013">
        <ele>195.39999389648</ele>
        <time>2013-04-27T08:05:06.000Z</time>
      </trkpt>
      <trkpt lat="43.65666" lon="1.23022">
        <ele>195.39999389648</ele>
        <time>2013-04-27T08:05:11.000Z</time>
      </trkpt>
      <trkpt lat="43.65656" lon="1.23036">
        <ele>195.80000305176</ele>
        <time>2013-04-27T08:05:15.000Z</time>
      </trkpt>
      <trkpt lat="43.65651" lon="1.23046">
        <ele>196</ele>
        <time>2013-04-27T08:05:18.000Z</time>
      </trkpt>
      <trkpt lat="43.65649" lon="1.23053">
        <ele>196.19999694824</ele>
        <time>2013-04-27T08:05:20.000Z</time>
      </trkpt>
      <trkpt lat="43.65642" lon="1.23066">
        <ele>196.39999389648</ele>
        <time>2013-04-27T08:05:24.000Z</time>
      </trkpt>
      <trkpt lat="43.65631" lon="1.23082">
        <ele>196.39999389648</ele>
        <time>2013-04-27T08:05:29.000Z</time>
      </trkpt>
      <trkpt lat="43.65615" lon="1.23098">
        <ele>196.60000610352</ele>
        <time>2013-04-27T08:05:35.000Z</time>
      </trkpt>
      <trkpt lat="43.65604" lon="1.23109">
        <ele>196.80000305176</ele>
        <time>2013-04-27T08:05:40.000Z</time>
      </trkpt>
      <trkpt lat="43.65598" lon="1.23115">
        <ele>196.80000305176</ele>
        <time>2013-04-27T08:05:42.000Z</time>
      </trkpt>
      <trkpt lat="43.65589" lon="1.23107">
        <ele>196.60000610352</ele>
        <time>2013-04-27T08:05:46.000Z</time>
      </trkpt>
      <trkpt lat="43.65588" lon="1.23104">
        <ele>196.39999389648</ele>
        <time>2013-04-27T08:05:47.000Z</time>
      </trkpt>
      <trkpt lat="43.6558" lon="1.23088">
        <ele>196</ele>
        <time>2013-04-27T08:05:52.000Z</time>
      </trkpt>
      <trkpt lat="43.65572" lon="1.23072">
        <ele>196</ele>
        <time>2013-04-27T08:05:57.000Z</time>
      </trkpt>
      <trkpt lat="43.65563" lon="1.23051">
        <ele>196.19999694824</ele>
        <time>2013-04-27T08:06:03.000Z</time>
      </trkpt>
      <trkpt lat="43.65557" lon="1.23033">
        <ele>196.19999694824</ele>
        <time>2013-04-27T08:06:08.000Z</time>
      </trkpt>
      <trkpt lat="43.65546" lon="1.2301">
        <ele>196.39999389648</ele>
        <time>2013-04-27T08:06:15.000Z</time>
      </trkpt>
      <trkpt lat="43.65538" lon="1.22994">
        <ele>196.39999389648</ele>
        <time>2013-04-27T08:06:20.000Z</time>
      </trkpt>
      <trkpt lat="43.65528" lon="1.22974">
        <ele>196</ele>
        <time>2013-04-27T08:06:27.000Z</time>
      </trkpt>
      <trkpt lat="43.6552" lon="1.22954">
        <ele>195.60000610352</ele>
        <time>2013-04-27T08:06:33.000Z</time>
      </trkpt>
      <trkpt lat="43.65512" lon="1.22936">
        <ele>195.39999389648</ele>
        <time>2013-04-27T08:06:39.000Z</time>
      </trkpt>
      <trkpt lat="43.65502" lon="1.22914">
        <ele>194.80000305176</ele>
        <time>2013-04-27T08:06:46.000Z</time>
      </trkpt>
      <trkpt lat="43.65497" lon="1.22903">
        <ele>195</ele>
        <time>2013-04-27T08:06:50.000Z</time>
      </trkpt>
      <trkpt lat="43.65489" lon="1.22887">
        <ele>195.39999389648</ele>
        <time>2013-04-27T08:06:56.000Z</time>
      </trkpt>
      <trkpt lat="43.6548" lon="1.22868">
        <ele>195.80000305176</ele>
        <time>2013-04-27T08:07:02.000Z</time>
      </trkpt>
      <trkpt lat="43.6547" lon="1.22848">
        <ele>196.19999694824</ele>
        <time>2013-04-27T08:07:08.000Z</time>
      </trkpt>
      <trkpt lat="43.6546" lon="1.22827">
        <ele>196.80000305176</ele>
        <time>2013-04-27T08:07:14.000Z</time>
      </trkpt>
      <trkpt lat="43.65452" lon="1.2281">
        <ele>197</ele>
        <time>2013-04-27T08:07:19.000Z</time>
      </trkpt>
      <trkpt lat="43.65445" lon="1.22797">
        <ele>197.39999389648</ele>
        <time>2013-04-27T08:07:23.000Z</time>
      </trkpt>
      <trkpt lat="43.65438" lon="1.2278">
        <ele>197.80000305176</ele>
        <time>2013-04-27T08:07:28.000Z</time>
      </trkpt>
      <trkpt lat="43.65431" lon="1.22764">
        <ele>198</ele>
        <time>2013-04-27T08:07:33.000Z</time>
      </trkpt>
      <trkpt lat="43.65426" lon="1.22747">
        <ele>198.39999389648</ele>
        <time>2013-04-27T08:07:38.000Z</time>
      </trkpt>
      <trkpt lat="43.65419" lon="1.22734">
        <ele>198.80000305176</ele>
        <time>2013-04-27T08:07:42.000Z</time>
      </trkpt>
      <trkpt lat="43.65415" lon="1.22726">
        <ele>199</ele>
        <time>2013-04-27T08:07:45.000Z</time>
      </trkpt>
      <trkpt lat="43.65404" lon="1.22702">
        <ele>199.80000305176</ele>
        <time>2013-04-27T08:07:52.000Z</time>
      </trkpt>
      <trkpt lat="43.65397" lon="1.22688">
        <ele>200.19999694824</ele>
        <time>2013-04-27T08:07:56.000Z</time>
      </trkpt>
      <trkpt lat="43.65392" lon="1.22679">
        <ele>200.39999389648</ele>
        <time>2013-04-27T08:07:59.000Z</time>
      </trkpt>
      <trkpt lat="43.65385" lon="1.22667">
        <ele>200.80000305176</ele>
        <time>2013-04-27T08:08:03.000Z</time>
      </trkpt>
      <trkpt lat="43.65383" lon="1.22659">
        <ele>200.60000610352</ele>
        <time>2013-04-27T08:08:05.000Z</time>
      </trkpt>
      <trkpt lat="43.65375" lon="1.22638">
        <ele>200.39999389648</ele>
        <time>2013-04-27T08:08:11.000Z</time>
      </trkpt>
      <trkpt lat="43.65369" lon="1.22623">
        <ele>200.19999694824</ele>
        <time>2013-04-27T08:08:16.000Z</time>
      </trkpt>
      <trkpt lat="43.65361" lon="1.22607">
        <ele>199.80000305176</ele>
        <time>2013-04-27T08:08:21.000Z</time>
      </trkpt>
      <trkpt lat="43.65358" lon="1.226">
        <ele>199.80000305176</ele>
        <time>2013-04-27T08:08:23.000Z</time>
      </trkpt>
      <trkpt lat="43.65351" lon="1.22577">
        <ele>199.19999694824</ele>
        <time>2013-04-27T08:08:29.000Z</time>
      </trkpt>
      <trkpt lat="43.65342" lon="1.22559">
        <ele>199</ele>
        <time>2013-04-27T08:08:34.000Z</time>
      </trkpt>
      <trkpt lat="43.65334" lon="1.22541">
        <ele>198.80000305176</ele>
        <time>2013-04-27T08:08:39.000Z</time>
      </trkpt>
      <trkpt lat="43.65327" lon="1.22526">
        <ele>198.60000610352</ele>
        <time>2013-04-27T08:08:43.000Z</time>
      </trkpt>
      <trkpt lat="43.6532" lon="1.2251">
        <ele>198.19999694824</ele>
        <time>2013-04-27T08:08:48.000Z</time>
      </trkpt>
      <trkpt lat="43.65318" lon="1.22505">
        <ele>198.19999694824</ele>
        <time>2013-04-27T08:08:49.000Z</time>
      </trkpt>
      <trkpt lat="43.65309" lon="1.22485">
        <ele>198.60000610352</ele>
        <time>2013-04-27T08:08:54.000Z</time>
      </trkpt>
      <trkpt lat="43.65299" lon="1.22464">
        <ele>199.19999694824</ele>
        <time>2013-04-27T08:09:00.000Z</time>
      </trkpt>
      <trkpt lat="43.65295" lon="1.22457">
        <ele>199.39999389648</ele>
        <time>2013-04-27T08:09:02.000Z</time>
      </trkpt>
      <trkpt lat="43.65287" lon="1.22438">
        <ele>200</ele>
        <time>2013-04-27T08:09:07.000Z</time>
      </trkpt>
      <trkpt lat="43.65285" lon="1.22434">
        <ele>200</ele>
        <time>2013-04-27T08:09:08.000Z</time>
      </trkpt>
      <trkpt lat="43.65276" lon="1.22415">
        <ele>200.60000610352</ele>
        <time>2013-04-27T08:09:13.000Z</time>
      </trkpt>
      <trkpt lat="43.65271" lon="1.22402">
        <ele>200.60000610352</ele>
        <time>2013-04-27T08:09:17.000Z</time>
      </trkpt>
      <trkpt lat="43.65262" lon="1.22379">
        <ele>200.60000610352</ele>
        <time>2013-04-27T08:09:23.000Z</time>
      </trkpt>
      <trkpt lat="43.65256" lon="1.2236">
        <ele>200.80000305176</ele>
        <time>2013-04-27T08:09:28.000Z</time>
      </trkpt>
      <trkpt lat="43.65248" lon="1.22342">
        <ele>201</ele>
        <time>2013-04-27T08:09:33.000Z</time>
      </trkpt>
      <trkpt lat="43.65241" lon="1.22324">
        <ele>201</ele>
        <time>2013-04-27T08:09:38.000Z</time>
      </trkpt>
      <trkpt lat="43.65233" lon="1.223">
        <ele>200.80000305176</ele>
        <time>2013-04-27T08:09:44.000Z</time>
      </trkpt>
      <trkpt lat="43.65228" lon="1.22285">
        <ele>200.80000305176</ele>
        <time>2013-04-27T08:09:48.000Z</time>
      </trkpt>
      <trkpt lat="43.65221" lon="1.22263">
        <ele>200.60000610352</ele>
        <time>2013-04-27T08:09:54.000Z</time>
      </trkpt>
      <trkpt lat="43.65212" lon="1.2224">
        <ele>200.60000610352</ele>
        <time>2013-04-27T08:10:00.000Z</time>
      </trkpt>
      <trkpt lat="43.65208" lon="1.22223">
        <ele>200.19999694824</ele>
        <time>2013-04-27T08:10:04.000Z</time>
      </trkpt>
      <trkpt lat="43.65202" lon="1.22208">
        <ele>200</ele>
        <time>2013-04-27T08:10:08.000Z</time>
      </trkpt>
      <trkpt lat="43.65195" lon="1.22193">
        <ele>199.80000305176</ele>
        <time>2013-04-27T08:10:12.000Z</time>
      </trkpt>
      <trkpt lat="43.65189" lon="1.22178">
        <ele>199.60000610352</ele>
        <time>2013-04-27T08:10:16.000Z</time>
      </trkpt>
      <trkpt lat="43.65182" lon="1.22157">
        <ele>199.60000610352</ele>
        <time>2013-04-27T08:10:21.000Z</time>
      </trkpt>
      <trkpt lat="43.65175" lon="1.22133">
        <ele>200</ele>
        <time>2013-04-27T08:10:27.000Z</time>
      </trkpt>
      <trkpt lat="43.65166" lon="1.2211">
        <ele>200.60000610352</ele>
        <time>2013-04-27T08:10:33.000Z</time>
      </trkpt>
      <trkpt lat="43.65158" lon="1.22091">
        <ele>201.39999389648</ele>
        <time>2013-04-27T08:10:39.000Z</time>
      </trkpt>
      <trkpt lat="43.65153" lon="1.2208">
        <ele>201.80000305176</ele>
        <time>2013-04-27T08:10:42.000Z</time>
      </trkpt>
      <trkpt lat="43.65147" lon="1.22065">
        <ele>202</ele>
        <time>2013-04-27T08:10:46.000Z</time>
      </trkpt>
      <trkpt lat="43.65141" lon="1.22059">
        <ele>202.19999694824</ele>
        <time>2013-04-27T08:10:49.000Z</time>
      </trkpt>
      <trkpt lat="43.65129" lon="1.22063">
        <ele>203</ele>
        <time>2013-04-27T08:10:55.000Z</time>
      </trkpt>
      <trkpt lat="43.65123" lon="1.22067">
        <ele>203.19999694824</ele>
        <time>2013-04-27T08:10:59.000Z</time>
      </trkpt>
      <trkpt lat="43.65119" lon="1.22073">
        <ele>203.60000610352</ele>
        <time>2013-04-27T08:11:03.000Z</time>
      </trkpt>
      <trkpt lat="43.65117" lon="1.22075">
        <ele>203.80000305176</ele>
        <time>2013-04-27T08:11:04.000Z</time>
      </trkpt>
      <trkpt lat="43.65114" lon="1.22076">
        <ele>204</ele>
        <time>2013-04-27T08:11:06.000Z</time>
      </trkpt>
      <trkpt lat="43.65108" lon="1.22084">
        <ele>204.39999389648</ele>
        <time>2013-04-27T08:11:11.000Z</time>
      </trkpt>
      <trkpt lat="43.65106" lon="1.22087">
        <ele>204.39999389648</ele>
        <time>2013-04-27T08:11:13.000Z</time>
      </trkpt>
      <trkpt lat="43.65101" lon="1.22091">
        <ele>204.80000305176</ele>
        <time>2013-04-27T08:11:17.000Z</time>
      </trkpt>
      <trkpt lat="43.65099" lon="1.22093">
        <ele>204.80000305176</ele>
        <time>2013-04-27T08:11:18.000Z</time>
      </trkpt>
      <trkpt lat="43.65086" lon="1.22105">
        <ele>205.39999389648</ele>
        <time>2013-04-27T08:11:26.000Z</time>
      </trkpt>
      <trkpt lat="43.65076" lon="1.22116">
        <ele>205.80000305176</ele>
        <time>2013-04-27T08:11:32.000Z</time>
      </trkpt>
      <trkpt lat="43.65065" lon="1.22129">
        <ele>206.39999389648</ele>
        <time>2013-04-27T08:11:37.000Z</time>
      </trkpt>
      <trkpt lat="43.65054" lon="1.2214">
        <ele>206.80000305176</ele>
        <time>2013-04-27T08:11:43.000Z</time>
      </trkpt>
      <trkpt lat="43.65045" lon="1.2215">
        <ele>207.19999694824</ele>
        <time>2013-04-27T08:11:48.000Z</time>
      </trkpt>
      <trkpt lat="43.65036" lon="1.22161">
        <ele>207.80000305176</ele>
        <time>2013-04-27T08:11:53.000Z</time>
      </trkpt>
      <trkpt lat="43.65024" lon="1.22172">
        <ele>208.39999389648</ele>
        <time>2013-04-27T08:11:59.000Z</time>
      </trkpt>
      <trkpt lat="43.65019" lon="1.22177">
        <ele>208.60000610352</ele>
        <time>2013-04-27T08:12:02.000Z</time>
      </trkpt>
      <trkpt lat="43.65011" lon="1.22169">
        <ele>209.19999694824</ele>
        <time>2013-04-27T08:12:06.000Z</time>
      </trkpt>
      <trkpt lat="43.65003" lon="1.22159">
        <ele>209.80000305176</ele>
        <time>2013-04-27T08:12:11.000Z</time>
      </trkpt>
      <trkpt lat="43.64991" lon="1.22145">
        <ele>210</ele>
        <time>2013-04-27T08:12:16.000Z</time>
      </trkpt>
      <trkpt lat="43.6498" lon="1.22128">
        <ele>210.19999694824</ele>
        <time>2013-04-27T08:12:23.000Z</time>
      </trkpt>
      <trkpt lat="43.64973" lon="1.22118">
        <ele>210.19999694824</ele>
        <time>2013-04-27T08:12:27.000Z</time>
      </trkpt>
      <trkpt lat="43.64964" lon="1.22101">
        <ele>210.39999389648</ele>
        <time>2013-04-27T08:12:32.000Z</time>
      </trkpt>
      <trkpt lat="43.64953" lon="1.22083">
        <ele>210.39999389648</ele>
        <time>2013-04-27T08:12:38.000Z</time>
      </trkpt>
      <trkpt lat="43.64944" lon="1.22067">
        <ele>210.60000610352</ele>
        <time>2013-04-27T08:12:43.000Z</time>
      </trkpt>
      <trkpt lat="43.64933" lon="1.22049">
        <ele>210.80000305176</ele>
        <time>2013-04-27T08:12:49.000Z</time>
      </trkpt>
      <trkpt lat="43.64922" lon="1.22032">
        <ele>210.80000305176</ele>
        <time>2013-04-27T08:12:55.000Z</time>
      </trkpt>
      <trkpt lat="43.64914" lon="1.22017">
        <ele>211</ele>
        <time>2013-04-27T08:13:00.000Z</time>
      </trkpt>
      <trkpt lat="43.64904" lon="1.22">
        <ele>211.39999389648</ele>
        <time>2013-04-27T08:13:06.000Z</time>
      </trkpt>
      <trkpt lat="43.64896" lon="1.21985">
        <ele>212</ele>
        <time>2013-04-27T08:13:11.000Z</time>
      </trkpt>
      <trkpt lat="43.64885" lon="1.21967">
        <ele>213</ele>
        <time>2013-04-27T08:13:17.000Z</time>
      </trkpt>
      <trkpt lat="43.64878" lon="1.21956">
        <ele>213.39999389648</ele>
        <time>2013-04-27T08:13:21.000Z</time>
      </trkpt>
      <trkpt lat="43.64869" lon="1.21941">
        <ele>214</ele>
        <time>2013-04-27T08:13:26.000Z</time>
      </trkpt>
      <trkpt lat="43.64859" lon="1.21924">
        <ele>214.39999389648</ele>
        <time>2013-04-27T08:13:32.000Z</time>
      </trkpt>
      <trkpt lat="43.64842" lon="1.21892">
        <ele>214.80000305176</ele>
        <time>2013-04-27T08:13:42.000Z</time>
      </trkpt>
      <trkpt lat="43.64834" lon="1.21878">
        <ele>214.80000305176</ele>
        <time>2013-04-27T08:13:47.000Z</time>
      </trkpt>
      <trkpt lat="43.64824" lon="1.21858">
        <ele>215</ele>
        <time>2013-04-27T08:13:53.000Z</time>
      </trkpt>
      <trkpt lat="43.64816" lon="1.21846">
        <ele>215.19999694824</ele>
        <time>2013-04-27T08:13:57.000Z</time>
      </trkpt>
      <trkpt lat="43.64808" lon="1.2183">
        <ele>215.19999694824</ele>
        <time>2013-04-27T08:14:02.000Z</time>
      </trkpt>
      <trkpt lat="43.64806" lon="1.21827">
        <ele>215.39999389648</ele>
        <time>2013-04-27T08:14:03.000Z</time>
      </trkpt>
      <trkpt lat="43.64795" lon="1.21811">
        <ele>215.80000305176</ele>
        <time>2013-04-27T08:14:09.000Z</time>
      </trkpt>
      <trkpt lat="43.6479" lon="1.21802">
        <ele>216</ele>
        <time>2013-04-27T08:14:12.000Z</time>
      </trkpt>
      <trkpt lat="43.64784" lon="1.21793">
        <ele>216.19999694824</ele>
        <time>2013-04-27T08:14:15.000Z</time>
      </trkpt>
      <trkpt lat="43.6478" lon="1.21791">
        <ele>216.39999389648</ele>
        <time>2013-04-27T08:14:17.000Z</time>
      </trkpt>
      <trkpt lat="43.64771" lon="1.21793">
        <ele>216.39999389648</ele>
        <time>2013-04-27T08:14:20.000Z</time>
      </trkpt>
      <trkpt lat="43.64768" lon="1.21793">
        <ele>216.60000610352</ele>
        <time>2013-04-27T08:14:21.000Z</time>
      </trkpt>
      <trkpt lat="43.64757" lon="1.21792">
        <ele>216.80000305176</ele>
        <time>2013-04-27T08:14:26.000Z</time>
      </trkpt>
      <trkpt lat="43.64757" lon="1.21791">
        <ele>216.80000305176</ele>
        <time>2013-04-27T08:14:27.000Z</time>
      </trkpt>
      <trkpt lat="43.64746" lon="1.21794">
        <ele>216.80000305176</ele>
        <time>2013-04-27T08:14:33.000Z</time>
      </trkpt>
      <trkpt lat="43.64735" lon="1.21805">
        <ele>216.60000610352</ele>
        <time>2013-04-27T08:14:38.000Z</time>
      </trkpt>
      <trkpt lat="43.64705" lon="1.21832">
        <ele>216.39999389648</ele>
        <time>2013-04-27T08:14:50.000Z</time>
      </trkpt>
      <trkpt lat="43.64689" lon="1.21845">
        <ele>216.60000610352</ele>
        <time>2013-04-27T08:14:56.000Z</time>
      </trkpt>
      <trkpt lat="43.64674" lon="1.21861">
        <ele>216.80000305176</ele>
        <time>2013-04-27T08:15:02.000Z</time>
      </trkpt>
      <trkpt lat="43.64663" lon="1.21871">
        <ele>216.80000305176</ele>
        <time>2013-04-27T08:15:06.000Z</time>
      </trkpt>
      <trkpt lat="43.64649" lon="1.21883">
        <ele>216.60000610352</ele>
        <time>2013-04-27T08:15:11.000Z</time>
      </trkpt>
      <trkpt lat="43.64639" lon="1.21895">
        <ele>216.39999389648</ele>
        <time>2013-04-27T08:15:15.000Z</time>
      </trkpt>
      <trkpt lat="43.64626" lon="1.21908">
        <ele>216</ele>
        <time>2013-04-27T08:15:20.000Z</time>
      </trkpt>
      <trkpt lat="43.64615" lon="1.21918">
        <ele>215.60000610352</ele>
        <time>2013-04-27T08:15:24.000Z</time>
      </trkpt>
      <trkpt lat="43.64593" lon="1.21942">
        <ele>215</ele>
        <time>2013-04-27T08:15:33.000Z</time>
      </trkpt>
      <trkpt lat="43.64578" lon="1.21958">
        <ele>215</ele>
        <time>2013-04-27T08:15:39.000Z</time>
      </trkpt>
      <trkpt lat="43.64566" lon="1.2197">
        <ele>215</ele>
        <time>2013-04-27T08:15:44.000Z</time>
      </trkpt>
      <trkpt lat="43.64552" lon="1.21985">
        <ele>215</ele>
        <time>2013-04-27T08:15:51.000Z</time>
      </trkpt>
      <trkpt lat="43.64539" lon="1.21997">
        <ele>215</ele>
        <time>2013-04-27T08:15:56.000Z</time>
      </trkpt>
      <trkpt lat="43.64526" lon="1.22009">
        <ele>215</ele>
        <time>2013-04-27T08:16:01.000Z</time>
      </trkpt>
      <trkpt lat="43.64511" lon="1.22024">
        <ele>215.19999694824</ele>
        <time>2013-04-27T08:16:07.000Z</time>
      </trkpt>
      <trkpt lat="43.64495" lon="1.22042">
        <ele>215.39999389648</ele>
        <time>2013-04-27T08:16:13.000Z</time>
      </trkpt>
      <trkpt lat="43.64483" lon="1.22056">
        <ele>215.60000610352</ele>
        <time>2013-04-27T08:16:18.000Z</time>
      </trkpt>
      <trkpt lat="43.64471" lon="1.22068">
        <ele>215.60000610352</ele>
        <time>2013-04-27T08:16:23.000Z</time>
      </trkpt>
      <trkpt lat="43.64445" lon="1.22095">
        <ele>215.39999389648</ele>
        <time>2013-04-27T08:16:33.000Z</time>
      </trkpt>
      <trkpt lat="43.64433" lon="1.22109">
        <ele>215.39999389648</ele>
        <time>2013-04-27T08:16:38.000Z</time>
      </trkpt>
      <trkpt lat="43.64418" lon="1.22122">
        <ele>215.39999389648</ele>
        <time>2013-04-27T08:16:43.000Z</time>
      </trkpt>
      <trkpt lat="43.64408" lon="1.22133">
        <ele>215.60000610352</ele>
        <time>2013-04-27T08:16:47.000Z</time>
      </trkpt>
      <trkpt lat="43.64393" lon="1.22148">
        <ele>215.80000305176</ele>
        <time>2013-04-27T08:16:53.000Z</time>
      </trkpt>
      <trkpt lat="43.64382" lon="1.22157">
        <ele>216.19999694824</ele>
        <time>2013-04-27T08:16:57.000Z</time>
      </trkpt>
      <trkpt lat="43.64368" lon="1.22171">
        <ele>216.39999389648</ele>
        <time>2013-04-27T08:17:02.000Z</time>
      </trkpt>
      <trkpt lat="43.64355" lon="1.22185">
        <ele>216.60000610352</ele>
        <time>2013-04-27T08:17:07.000Z</time>
      </trkpt>
      <trkpt lat="43.64341" lon="1.22202">
        <ele>216.80000305176</ele>
        <time>2013-04-27T08:17:12.000Z</time>
      </trkpt>
      <trkpt lat="43.64327" lon="1.22218">
        <ele>217</ele>
        <time>2013-04-27T08:17:17.000Z</time>
      </trkpt>
      <trkpt lat="43.64313" lon="1.22232">
        <ele>217.39999389648</ele>
        <time>2013-04-27T08:17:22.000Z</time>
      </trkpt>
      <trkpt lat="43.64297" lon="1.22247">
        <ele>217.80000305176</ele>
        <time>2013-04-27T08:17:28.000Z</time>
      </trkpt>
      <trkpt lat="43.64283" lon="1.2226">
        <ele>218</ele>
        <time>2013-04-27T08:17:35.000Z</time>
      </trkpt>
      <trkpt lat="43.64271" lon="1.22273">
        <ele>218</ele>
        <time>2013-04-27T08:17:43.000Z</time>
      </trkpt>
      <trkpt lat="43.64263" lon="1.2228">
        <ele>218</ele>
        <time>2013-04-27T08:17:49.000Z</time>
      </trkpt>
      <trkpt lat="43.64255" lon="1.22288">
        <ele>218</ele>
        <time>2013-04-27T08:17:56.000Z</time>
      </trkpt>
      <trkpt lat="43.64246" lon="1.22295">
        <ele>217.80000305176</ele>
        <time>2013-04-27T08:18:03.000Z</time>
      </trkpt>
      <trkpt lat="43.64245" lon="1.22296">
        <ele>217.80000305176</ele>
        <time>2013-04-27T08:18:04.000Z</time>
      </trkpt>
      <trkpt lat="43.64233" lon="1.22298">
        <ele>217.80000305176</ele>
        <time>2013-04-27T08:18:13.000Z</time>
      </trkpt>
      <trkpt lat="43.64228" lon="1.22299">
        <ele>217.80000305176</ele>
        <time>2013-04-27T08:18:18.000Z</time>
      </trkpt>
      <trkpt lat="43.64219" lon="1.223">
        <ele>217.60000610352</ele>
        <time>2013-04-27T08:18:26.000Z</time>
      </trkpt>
      <trkpt lat="43.64217" lon="1.223">
        <ele>217.60000610352</ele>
        <time>2013-04-27T08:18:27.000Z</time>
      </trkpt>
      <trkpt lat="43.64212" lon="1.22296">
        <ele>217.80000305176</ele>
        <time>2013-04-27T08:18:32.000Z</time>
      </trkpt>
      <trkpt lat="43.64208" lon="1.22293">
        <ele>217.80000305176</ele>
        <time>2013-04-27T08:18:35.000Z</time>
      </trkpt>
    </trkseg>
  </trk>
</gpx>